<?xml version="1.0" encoding="utf-8"?>
<gpx xmlns:xsi="http://www.w3.org/2001/XMLSchema-instance" xmlns:xsd="http://www.w3.org/2001/XMLSchema" version="1.1" creator="Shapelink.com" xmlns="http://www.topografix.com/GPX/1/1" xmlns:gpxtpx="http://www.garmin.com/xmlschemas/TrackPointExtension/v1">
  <metadata>
    <name>Ejecutar 7.73 km, 2020-03-23</name>
    <desc></desc>
    <author><name>Per Rooth</name></author> 
    <time>2020-03-23T17:34:57Z</time>
  </metadata>
  <trk>
    <name>Ejecutar 7.73 km, 2020-03-23</name>
    <trkseg>
      <trkpt lat="56.891011173102" lon="14.824437636043">
        <ele>173</ele>
        <time>2020-03-23T17:34:57Z</time>
      </trkpt>
      <trkpt lat="56.890936071278" lon="14.824504607424">
        <ele>174</ele>
        <time>2020-03-23T17:35:01Z</time>
      </trkpt>
      <trkpt lat="56.890820820153" lon="14.824686662292">
        <ele>172.6</ele>
        <time>2020-03-23T17:35:07Z</time>
      </trkpt>
      <trkpt lat="56.890810007502" lon="14.824729074706">
        <ele>171.6</ele>
        <time>2020-03-23T17:35:08Z</time>
      </trkpt>
      <trkpt lat="56.890763487957" lon="14.824874081576">
        <ele>170.2</ele>
        <time>2020-03-23T17:35:11Z</time>
      </trkpt>
      <trkpt lat="56.890635747801" lon="14.825163257126">
        <ele>169</ele>
        <time>2020-03-23T17:35:17Z</time>
      </trkpt>
      <trkpt lat="56.890559975425" lon="14.82533810356">
        <ele>168.2</ele>
        <time>2020-03-23T17:35:21Z</time>
      </trkpt>
      <trkpt lat="56.890456794236" lon="14.82564404291">
        <ele>169.4</ele>
        <time>2020-03-23T17:35:27Z</time>
      </trkpt>
      <trkpt lat="56.890368365191" lon="14.82600111185">
        <ele>168.2</ele>
        <time>2020-03-23T17:35:33Z</time>
      </trkpt>
      <trkpt lat="56.890355205608" lon="14.826057102942">
        <ele>167.8</ele>
        <time>2020-03-23T17:35:34Z</time>
      </trkpt>
      <trkpt lat="56.890319666352" lon="14.826293137246">
        <ele>167.4</ele>
        <time>2020-03-23T17:35:38Z</time>
      </trkpt>
      <trkpt lat="56.890318576705" lon="14.826433869347">
        <ele>167</ele>
        <time>2020-03-23T17:35:41Z</time>
      </trkpt>
      <trkpt lat="56.890489651284" lon="14.826485250394">
        <ele>167.6</ele>
        <time>2020-03-23T17:35:48Z</time>
      </trkpt>
      <trkpt lat="56.890673885446" lon="14.826421380316">
        <ele>167.6</ele>
        <time>2020-03-23T17:35:55Z</time>
      </trkpt>
      <trkpt lat="56.890757536808" lon="14.826372178563">
        <ele>167.8</ele>
        <time>2020-03-23T17:35:58Z</time>
      </trkpt>
      <trkpt lat="56.890942692979" lon="14.826225579132">
        <ele>168</ele>
        <time>2020-03-23T17:36:05Z</time>
      </trkpt>
      <trkpt lat="56.891127430055" lon="14.826165145633">
        <ele>168.4</ele>
        <time>2020-03-23T17:36:11Z</time>
      </trkpt>
      <trkpt lat="56.891317196271" lon="14.826159948855">
        <ele>168.4</ele>
        <time>2020-03-23T17:36:17Z</time>
      </trkpt>
      <trkpt lat="56.891514590016" lon="14.826146789272">
        <ele>167.6</ele>
        <time>2020-03-23T17:36:24Z</time>
      </trkpt>
      <trkpt lat="56.891647862226" lon="14.826171767334">
        <ele>167.2</ele>
        <time>2020-03-23T17:36:30Z</time>
      </trkpt>
      <trkpt lat="56.891742661515" lon="14.826189285505">
        <ele>166.8</ele>
        <time>2020-03-23T17:36:34Z</time>
      </trkpt>
      <trkpt lat="56.891947012237" lon="14.826190626609">
        <ele>166.8</ele>
        <time>2020-03-23T17:36:43Z</time>
      </trkpt>
      <trkpt lat="56.892123535051" lon="14.826122481762">
        <ele>167</ele>
        <time>2020-03-23T17:36:49Z</time>
      </trkpt>
      <trkpt lat="56.892304919367" lon="14.826123403771">
        <ele>167</ele>
        <time>2020-03-23T17:36:55Z</time>
      </trkpt>
      <trkpt lat="56.892505749691" lon="14.826181155062">
        <ele>167.6</ele>
        <time>2020-03-23T17:37:01Z</time>
      </trkpt>
      <trkpt lat="56.892660814841" lon="14.826374860771">
        <ele>167.8</ele>
        <time>2020-03-23T17:37:06Z</time>
      </trkpt>
      <trkpt lat="56.892760559451" lon="14.826613996378">
        <ele>168</ele>
        <time>2020-03-23T17:37:11Z</time>
      </trkpt>
      <trkpt lat="56.892878157508" lon="14.826909542172">
        <ele>169</ele>
        <time>2020-03-23T17:37:17Z</time>
      </trkpt>
      <trkpt lat="56.89289475367" lon="14.826962096685">
        <ele>169.2</ele>
        <time>2020-03-23T17:37:18Z</time>
      </trkpt>
      <trkpt lat="56.892990558787" lon="14.827240375765">
        <ele>169</ele>
        <time>2020-03-23T17:37:24Z</time>
      </trkpt>
      <trkpt lat="56.89306490624" lon="14.827585877683">
        <ele>169</ele>
        <time>2020-03-23T17:37:31Z</time>
      </trkpt>
      <trkpt lat="56.893167081601" lon="14.827854182302">
        <ele>169.2</ele>
        <time>2020-03-23T17:37:38Z</time>
      </trkpt>
      <trkpt lat="56.89334905265" lon="14.827895085974">
        <ele>169</ele>
        <time>2020-03-23T17:37:45Z</time>
      </trkpt>
      <trkpt lat="56.893541920169" lon="14.827908329376">
        <ele>169</ele>
        <time>2020-03-23T17:37:52Z</time>
      </trkpt>
      <trkpt lat="56.893729674729" lon="14.827934397085">
        <ele>168.8</ele>
        <time>2020-03-23T17:37:58Z</time>
      </trkpt>
      <trkpt lat="56.8939315947" lon="14.827968762875">
        <ele>168.4</ele>
        <time>2020-03-23T17:38:05Z</time>
      </trkpt>
      <trkpt lat="56.894045337083" lon="14.828274534587">
        <ele>167.8</ele>
        <time>2020-03-23T17:38:11Z</time>
      </trkpt>
      <trkpt lat="56.894119013984" lon="14.828566057069">
        <ele>167.8</ele>
        <time>2020-03-23T17:38:18Z</time>
      </trkpt>
      <trkpt lat="56.894294111875" lon="14.82866404148">
        <ele>168</ele>
        <time>2020-03-23T17:38:24Z</time>
      </trkpt>
      <trkpt lat="56.894407267525" lon="14.828728079196">
        <ele>168.4</ele>
        <time>2020-03-23T17:38:29Z</time>
      </trkpt>
      <trkpt lat="56.894551100929" lon="14.828740568227">
        <ele>168.8</ele>
        <time>2020-03-23T17:38:35Z</time>
      </trkpt>
      <trkpt lat="56.894744219905" lon="14.828608301845">
        <ele>169.8</ele>
        <time>2020-03-23T17:38:43Z</time>
      </trkpt>
      <trkpt lat="56.894789565984" lon="14.828620623238">
        <ele>170</ele>
        <time>2020-03-23T17:38:45Z</time>
      </trkpt>
      <trkpt lat="56.894872546794" lon="14.828961515111">
        <ele>168.6</ele>
        <time>2020-03-23T17:38:52Z</time>
      </trkpt>
      <trkpt lat="56.894883946178" lon="14.829123201962">
        <ele>167.4</ele>
        <time>2020-03-23T17:38:56Z</time>
      </trkpt>
      <trkpt lat="56.894922670556" lon="14.829468787699">
        <ele>167.2</ele>
        <time>2020-03-23T17:39:03Z</time>
      </trkpt>
      <trkpt lat="56.894959886192" lon="14.82958940324">
        <ele>168.4</ele>
        <time>2020-03-23T17:39:06Z</time>
      </trkpt>
      <trkpt lat="56.894980505666" lon="14.829727536952">
        <ele>169.6</ele>
        <time>2020-03-23T17:39:09Z</time>
      </trkpt>
      <trkpt lat="56.895012273067" lon="14.829955608451">
        <ele>169</ele>
        <time>2020-03-23T17:39:15Z</time>
      </trkpt>
      <trkpt lat="56.895086871977" lon="14.829931300941">
        <ele>169</ele>
        <time>2020-03-23T17:39:19Z</time>
      </trkpt>
      <trkpt lat="56.895106401804" lon="14.829920739747">
        <ele>169</ele>
        <time>2020-03-23T17:39:20Z</time>
      </trkpt>
      <trkpt lat="56.895285523007" lon="14.82988109336">
        <ele>170</ele>
        <time>2020-03-23T17:39:29Z</time>
      </trkpt>
      <trkpt lat="56.895329025068" lon="14.829860222429">
        <ele>169.2</ele>
        <time>2020-03-23T17:39:33Z</time>
      </trkpt>
      <trkpt lat="56.895403623978" lon="14.829845721742">
        <ele>169</ele>
        <time>2020-03-23T17:39:40Z</time>
      </trkpt>
      <trkpt lat="56.895494483774" lon="14.830109667773">
        <ele>170.4</ele>
        <time>2020-03-23T17:39:49Z</time>
      </trkpt>
      <trkpt lat="56.895516025257" lon="14.830196420438">
        <ele>170.6</ele>
        <time>2020-03-23T17:39:51Z</time>
      </trkpt>
      <trkpt lat="56.895535555084" lon="14.830307396794">
        <ele>171</ele>
        <time>2020-03-23T17:39:53Z</time>
      </trkpt>
      <trkpt lat="56.895573441272" lon="14.830413595467">
        <ele>171.8</ele>
        <time>2020-03-23T17:39:56Z</time>
      </trkpt>
      <trkpt lat="56.895609567261" lon="14.830475956803">
        <ele>171.8</ele>
        <time>2020-03-23T17:39:59Z</time>
      </trkpt>
      <trkpt lat="56.895681400144" lon="14.830596488525">
        <ele>172</ele>
        <time>2020-03-23T17:40:08Z</time>
      </trkpt>
      <trkpt lat="56.895704282731" lon="14.830702100465">
        <ele>172</ele>
        <time>2020-03-23T17:40:11Z</time>
      </trkpt>
      <trkpt lat="56.895718112866" lon="14.830833863933">
        <ele>173</ele>
        <time>2020-03-23T17:40:14Z</time>
      </trkpt>
      <trkpt lat="56.895724818386" lon="14.830905110083">
        <ele>174</ele>
        <time>2020-03-23T17:40:16Z</time>
      </trkpt>
      <trkpt lat="56.895730937173" lon="14.830927908851">
        <ele>174.2</ele>
        <time>2020-03-23T17:40:17Z</time>
      </trkpt>
      <trkpt lat="56.895743845299" lon="14.830967303781">
        <ele>174.6</ele>
        <time>2020-03-23T17:40:19Z</time>
      </trkpt>
      <trkpt lat="56.895767985171" lon="14.831080124155">
        <ele>175.4</ele>
        <time>2020-03-23T17:40:23Z</time>
      </trkpt>
      <trkpt lat="56.895772176121" lon="14.831131253745">
        <ele>175.8</ele>
        <time>2020-03-23T17:40:25Z</time>
      </trkpt>
      <trkpt lat="56.895803943522" lon="14.831266453792">
        <ele>176</ele>
        <time>2020-03-23T17:40:32Z</time>
      </trkpt>
      <trkpt lat="56.895856665673" lon="14.831293108234">
        <ele>176.6</ele>
        <time>2020-03-23T17:40:35Z</time>
      </trkpt>
      <trkpt lat="56.896023633121" lon="14.831429565566">
        <ele>177.2</ele>
        <time>2020-03-23T17:40:44Z</time>
      </trkpt>
      <trkpt lat="56.896200826487" lon="14.831646070043">
        <ele>176.8</ele>
        <time>2020-03-23T17:40:52Z</time>
      </trkpt>
      <trkpt lat="56.896260337977" lon="14.831732906527">
        <ele>176.6</ele>
        <time>2020-03-23T17:40:55Z</time>
      </trkpt>
      <trkpt lat="56.896320268562" lon="14.831844888711">
        <ele>176.6</ele>
        <time>2020-03-23T17:40:58Z</time>
      </trkpt>
      <trkpt lat="56.896504167448" lon="14.831821587029">
        <ele>176.8</ele>
        <time>2020-03-23T17:41:04Z</time>
      </trkpt>
      <trkpt lat="56.896663339729" lon="14.831659648721">
        <ele>176.8</ele>
        <time>2020-03-23T17:41:10Z</time>
      </trkpt>
      <trkpt lat="56.89681161554" lon="14.831466026831">
        <ele>176.6</ele>
        <time>2020-03-23T17:41:15Z</time>
      </trkpt>
      <trkpt lat="56.896983779766" lon="14.831302412143">
        <ele>176.4</ele>
        <time>2020-03-23T17:41:21Z</time>
      </trkpt>
      <trkpt lat="56.897166756643" lon="14.831125637872">
        <ele>177</ele>
        <time>2020-03-23T17:41:28Z</time>
      </trkpt>
      <trkpt lat="56.897291730772" lon="14.831023630149">
        <ele>178</ele>
        <time>2020-03-23T17:41:32Z</time>
      </trkpt>
      <trkpt lat="56.897459368772" lon="14.830863116764">
        <ele>177.4</ele>
        <time>2020-03-23T17:41:38Z</time>
      </trkpt>
      <trkpt lat="56.897514521674" lon="14.830808718233">
        <ele>176.6</ele>
        <time>2020-03-23T17:41:40Z</time>
      </trkpt>
      <trkpt lat="56.897709484668" lon="14.83068575576">
        <ele>175.4</ele>
        <time>2020-03-23T17:41:47Z</time>
      </trkpt>
      <trkpt lat="56.897851725511" lon="14.830612917049">
        <ele>175.8</ele>
        <time>2020-03-23T17:41:52Z</time>
      </trkpt>
      <trkpt lat="56.897958510917" lon="14.830873677958">
        <ele>176.4</ele>
        <time>2020-03-23T17:42:00Z</time>
      </trkpt>
      <trkpt lat="56.89804040208" lon="14.830971494731">
        <ele>177.8</ele>
        <time>2020-03-23T17:42:04Z</time>
      </trkpt>
      <trkpt lat="56.898173255195" lon="14.831229489613">
        <ele>178.2</ele>
        <time>2020-03-23T17:42:12Z</time>
      </trkpt>
      <trkpt lat="56.898287332854" lon="14.831465859193">
        <ele>178.4</ele>
        <time>2020-03-23T17:42:18Z</time>
      </trkpt>
      <trkpt lat="56.898325721956" lon="14.831484383192">
        <ele>178.4</ele>
        <time>2020-03-23T17:42:20Z</time>
      </trkpt>
      <trkpt lat="56.89839663283" lon="14.831444652986">
        <ele>178.6</ele>
        <time>2020-03-23T17:42:24Z</time>
      </trkpt>
      <trkpt lat="56.898531329963" lon="14.83156836983">
        <ele>178</ele>
        <time>2020-03-23T17:42:36Z</time>
      </trkpt>
      <trkpt lat="56.898606096511" lon="14.831896521215">
        <ele>178</ele>
        <time>2020-03-23T17:42:44Z</time>
      </trkpt>
      <trkpt lat="56.898626967442" lon="14.832010263598">
        <ele>179.2</ele>
        <time>2020-03-23T17:42:47Z</time>
      </trkpt>
      <trkpt lat="56.898610203642" lon="14.832380156845">
        <ele>179.8</ele>
        <time>2020-03-23T17:42:56Z</time>
      </trkpt>
      <trkpt lat="56.898585560856" lon="14.83273764488">
        <ele>179.4</ele>
        <time>2020-03-23T17:43:03Z</time>
      </trkpt>
      <trkpt lat="56.898602995208" lon="14.833081805694">
        <ele>179.6</ele>
        <time>2020-03-23T17:43:09Z</time>
      </trkpt>
      <trkpt lat="56.898571898359" lon="14.833231590247">
        <ele>179.4</ele>
        <time>2020-03-23T17:43:13Z</time>
      </trkpt>
      <trkpt lat="56.898546836478" lon="14.833648673591">
        <ele>180.2</ele>
        <time>2020-03-23T17:43:19Z</time>
      </trkpt>
      <trkpt lat="56.898539879501" lon="14.833714052411">
        <ele>180.4</ele>
        <time>2020-03-23T17:43:20Z</time>
      </trkpt>
      <trkpt lat="56.898524121529" lon="14.833910943242">
        <ele>181.2</ele>
        <time>2020-03-23T17:43:25Z</time>
      </trkpt>
      <trkpt lat="56.898524121529" lon="14.833977076433">
        <ele>181.6</ele>
        <time>2020-03-23T17:43:27Z</time>
      </trkpt>
      <trkpt lat="56.898505848987" lon="14.83435032244">
        <ele>180.8</ele>
        <time>2020-03-23T17:43:34Z</time>
      </trkpt>
      <trkpt lat="56.898510961946" lon="14.834525001236">
        <ele>180.2</ele>
        <time>2020-03-23T17:43:38Z</time>
      </trkpt>
      <trkpt lat="56.898527139013" lon="14.834672690314">
        <ele>179.2</ele>
        <time>2020-03-23T17:43:42Z</time>
      </trkpt>
      <trkpt lat="56.89853577237" lon="14.834742511541">
        <ele>178</ele>
        <time>2020-03-23T17:43:44Z</time>
      </trkpt>
      <trkpt lat="56.898544321908" lon="14.834785845964">
        <ele>177.4</ele>
        <time>2020-03-23T17:43:45Z</time>
      </trkpt>
      <trkpt lat="56.898547339392" lon="14.834832365509">
        <ele>176.8</ele>
        <time>2020-03-23T17:43:46Z</time>
      </trkpt>
      <trkpt lat="56.898545160098" lon="14.835068902727">
        <ele>175.8</ele>
        <time>2020-03-23T17:43:50Z</time>
      </trkpt>
      <trkpt lat="56.898507609186" lon="14.835442064915">
        <ele>175.4</ele>
        <time>2020-03-23T17:43:56Z</time>
      </trkpt>
      <trkpt lat="56.898432255905" lon="14.83578027458">
        <ele>176.8</ele>
        <time>2020-03-23T17:44:04Z</time>
      </trkpt>
      <trkpt lat="56.898419180141" lon="14.835820340062">
        <ele>177</ele>
        <time>2020-03-23T17:44:05Z</time>
      </trkpt>
      <trkpt lat="56.898399398857" lon="14.83592528145">
        <ele>177</ele>
        <time>2020-03-23T17:44:07Z</time>
      </trkpt>
      <trkpt lat="56.898516577819" lon="14.836181851409">
        <ele>176.4</ele>
        <time>2020-03-23T17:44:14Z</time>
      </trkpt>
      <trkpt lat="56.898513476516" lon="14.836238345415">
        <ele>175.8</ele>
        <time>2020-03-23T17:44:16Z</time>
      </trkpt>
      <trkpt lat="56.898515488172" lon="14.836300874389">
        <ele>175.4</ele>
        <time>2020-03-23T17:44:19Z</time>
      </trkpt>
      <trkpt lat="56.898554464007" lon="14.836411683107">
        <ele>175.2</ele>
        <time>2020-03-23T17:44:27Z</time>
      </trkpt>
      <trkpt lat="56.898571730721" lon="14.836449401657">
        <ele>174.8</ele>
        <time>2020-03-23T17:44:30Z</time>
      </trkpt>
      <trkpt lat="56.898582878648" lon="14.8365329692">
        <ele>174.4</ele>
        <time>2020-03-23T17:44:34Z</time>
      </trkpt>
      <trkpt lat="56.898594110394" lon="14.836597845106">
        <ele>174.2</ele>
        <time>2020-03-23T17:44:37Z</time>
      </trkpt>
      <trkpt lat="56.898608611081" lon="14.836614692725">
        <ele>174.2</ele>
        <time>2020-03-23T17:44:39Z</time>
      </trkpt>
      <trkpt lat="56.898624871967" lon="14.836614944182">
        <ele>173.8</ele>
        <time>2020-03-23T17:44:42Z</time>
      </trkpt>
      <trkpt lat="56.898627889451" lon="14.836622068797">
        <ele>173.4</ele>
        <time>2020-03-23T17:44:43Z</time>
      </trkpt>
      <trkpt lat="56.898644066518" lon="14.836654422931">
        <ele>172.2</ele>
        <time>2020-03-23T17:44:46Z</time>
      </trkpt>
      <trkpt lat="56.898727550242" lon="14.836742684338">
        <ele>171.2</ele>
        <time>2020-03-23T17:44:51Z</time>
      </trkpt>
      <trkpt lat="56.898720257989" lon="14.836865479173">
        <ele>171</ele>
        <time>2020-03-23T17:44:59Z</time>
      </trkpt>
      <trkpt lat="56.89864725164" lon="14.83696463705">
        <ele>171.2</ele>
        <time>2020-03-23T17:45:09Z</time>
      </trkpt>
      <trkpt lat="56.89853744875" lon="14.837119031648">
        <ele>172.4</ele>
        <time>2020-03-23T17:45:25Z</time>
      </trkpt>
      <trkpt lat="56.89849386287" lon="14.837135963086">
        <ele>173.8</ele>
        <time>2020-03-23T17:45:29Z</time>
      </trkpt>
      <trkpt lat="56.898447091868" lon="14.837118361096">
        <ele>174.4</ele>
        <time>2020-03-23T17:45:34Z</time>
      </trkpt>
      <trkpt lat="56.898432423543" lon="14.837129089928">
        <ele>175</ele>
        <time>2020-03-23T17:45:36Z</time>
      </trkpt>
      <trkpt lat="56.898426975308" lon="14.837116097983">
        <ele>175.4</ele>
        <time>2020-03-23T17:45:37Z</time>
      </trkpt>
      <trkpt lat="56.898387831835" lon="14.837065136031">
        <ele>175.8</ele>
        <time>2020-03-23T17:45:39Z</time>
      </trkpt>
      <trkpt lat="56.898383892342" lon="14.837090197912">
        <ele>175.8</ele>
        <time>2020-03-23T17:45:43Z</time>
      </trkpt>
      <trkpt lat="56.898392693337" lon="14.837117942001">
        <ele>175.8</ele>
        <time>2020-03-23T17:45:45Z</time>
      </trkpt>
      <trkpt lat="56.898363021411" lon="14.837210561996">
        <ele>174</ele>
        <time>2020-03-23T17:45:52Z</time>
      </trkpt>
      <trkpt lat="56.898359668651" lon="14.837222883389">
        <ele>173.8</ele>
        <time>2020-03-23T17:45:53Z</time>
      </trkpt>
      <trkpt lat="56.898357154081" lon="14.837237132619">
        <ele>173.6</ele>
        <time>2020-03-23T17:45:54Z</time>
      </trkpt>
      <trkpt lat="56.898361512669" lon="14.837342576921">
        <ele>173.4</ele>
        <time>2020-03-23T17:45:57Z</time>
      </trkpt>
      <trkpt lat="56.898447343325" lon="14.837399741479">
        <ele>173.2</ele>
        <time>2020-03-23T17:46:02Z</time>
      </trkpt>
      <trkpt lat="56.898549937781" lon="14.837283233069">
        <ele>172.8</ele>
        <time>2020-03-23T17:46:07Z</time>
      </trkpt>
      <trkpt lat="56.898555721292" lon="14.83726470907">
        <ele>172.6</ele>
        <time>2020-03-23T17:46:08Z</time>
      </trkpt>
      <trkpt lat="56.898558152043" lon="14.837241658845">
        <ele>172</ele>
        <time>2020-03-23T17:46:10Z</time>
      </trkpt>
      <trkpt lat="56.898561420984" lon="14.837240233922">
        <ele>171.6</ele>
        <time>2020-03-23T17:46:11Z</time>
      </trkpt>
      <trkpt lat="56.898520433493" lon="14.837339140342">
        <ele>171</ele>
        <time>2020-03-23T17:46:23Z</time>
      </trkpt>
      <trkpt lat="56.898475757966" lon="14.837417594926">
        <ele>171.6</ele>
        <time>2020-03-23T17:46:26Z</time>
      </trkpt>
      <trkpt lat="56.898410798241" lon="14.837481381185">
        <ele>172.6</ele>
        <time>2020-03-23T17:46:29Z</time>
      </trkpt>
      <trkpt lat="56.898215835247" lon="14.837432095613">
        <ele>172.8</ele>
        <time>2020-03-23T17:46:41Z</time>
      </trkpt>
      <trkpt lat="56.898193036479" lon="14.83743737621">
        <ele>173</ele>
        <time>2020-03-23T17:46:42Z</time>
      </trkpt>
      <trkpt lat="56.898139140862" lon="14.837464449747">
        <ele>173.8</ele>
        <time>2020-03-23T17:46:45Z</time>
      </trkpt>
      <trkpt lat="56.898097315181" lon="14.837471909638">
        <ele>174.2</ele>
        <time>2020-03-23T17:46:47Z</time>
      </trkpt>
      <trkpt lat="56.898027242497" lon="14.837610630083">
        <ele>175</ele>
        <time>2020-03-23T17:46:51Z</time>
      </trkpt>
      <trkpt lat="56.89800016896" lon="14.837659161284">
        <ele>175.6</ele>
        <time>2020-03-23T17:46:53Z</time>
      </trkpt>
      <trkpt lat="56.897832195684" lon="14.837725545932">
        <ele>175.2</ele>
        <time>2020-03-23T17:47:01Z</time>
      </trkpt>
      <trkpt lat="56.897769331434" lon="14.837787823449">
        <ele>175.6</ele>
        <time>2020-03-23T17:47:04Z</time>
      </trkpt>
      <trkpt lat="56.897715100541" lon="14.837822021601">
        <ele>175.8</ele>
        <time>2020-03-23T17:47:06Z</time>
      </trkpt>
      <trkpt lat="56.897649973178" lon="14.837925705704">
        <ele>176</ele>
        <time>2020-03-23T17:47:09Z</time>
      </trkpt>
      <trkpt lat="56.897576380096" lon="14.838054116412">
        <ele>176.2</ele>
        <time>2020-03-23T17:47:13Z</time>
      </trkpt>
      <trkpt lat="56.897539918831" lon="14.838194680875">
        <ele>177.2</ele>
        <time>2020-03-23T17:47:16Z</time>
      </trkpt>
      <trkpt lat="56.897438246384" lon="14.838434235577">
        <ele>176</ele>
        <time>2020-03-23T17:47:22Z</time>
      </trkpt>
      <trkpt lat="56.89738829026" lon="14.838539512241">
        <ele>176</ele>
        <time>2020-03-23T17:47:25Z</time>
      </trkpt>
      <trkpt lat="56.897362641646" lon="14.838552001272">
        <ele>176.2</ele>
        <time>2020-03-23T17:47:27Z</time>
      </trkpt>
      <trkpt lat="56.897229956169" lon="14.838492741239">
        <ele>177.2</ele>
        <time>2020-03-23T17:47:32Z</time>
      </trkpt>
      <trkpt lat="56.897206151573" lon="14.838489220841">
        <ele>177.2</ele>
        <time>2020-03-23T17:47:33Z</time>
      </trkpt>
      <trkpt lat="56.897015966262" lon="14.838491232497">
        <ele>177.8</ele>
        <time>2020-03-23T17:47:40Z</time>
      </trkpt>
      <trkpt lat="56.896968943803" lon="14.838479665475">
        <ele>178.2</ele>
        <time>2020-03-23T17:47:42Z</time>
      </trkpt>
      <trkpt lat="56.896776160103" lon="14.83849684837">
        <ele>177.8</ele>
        <time>2020-03-23T17:47:50Z</time>
      </trkpt>
      <trkpt lat="56.896655963657" lon="14.838465164788">
        <ele>177.2</ele>
        <time>2020-03-23T17:47:56Z</time>
      </trkpt>
      <trkpt lat="56.896512884624" lon="14.838587624347">
        <ele>176.6</ele>
        <time>2020-03-23T17:48:02Z</time>
      </trkpt>
      <trkpt lat="56.896465191613" lon="14.838576392601">
        <ele>175.8</ele>
        <time>2020-03-23T17:48:04Z</time>
      </trkpt>
      <trkpt lat="56.896431580194" lon="14.838492741239">
        <ele>174.6</ele>
        <time>2020-03-23T17:48:07Z</time>
      </trkpt>
      <trkpt lat="56.896391011798" lon="14.838286211223">
        <ele>175.8</ele>
        <time>2020-03-23T17:48:12Z</time>
      </trkpt>
      <trkpt lat="56.896373996541" lon="14.838187723898">
        <ele>176.8</ele>
        <time>2020-03-23T17:48:15Z</time>
      </trkpt>
      <trkpt lat="56.896327309358" lon="14.838176575971">
        <ele>177.4</ele>
        <time>2020-03-23T17:48:18Z</time>
      </trkpt>
      <trkpt lat="56.896197389908" lon="14.838158973981">
        <ele>178</ele>
        <time>2020-03-23T17:48:23Z</time>
      </trkpt>
      <trkpt lat="56.896007958968" lon="14.838135839937">
        <ele>177.4</ele>
        <time>2020-03-23T17:48:30Z</time>
      </trkpt>
      <trkpt lat="56.895854318741" lon="14.83795621582">
        <ele>178.2</ele>
        <time>2020-03-23T17:48:38Z</time>
      </trkpt>
      <trkpt lat="56.895845014832" lon="14.83794448116">
        <ele>178.4</ele>
        <time>2020-03-23T17:48:39Z</time>
      </trkpt>
      <trkpt lat="56.895836046199" lon="14.837931573034">
        <ele>178.4</ele>
        <time>2020-03-23T17:48:41Z</time>
      </trkpt>
      <trkpt lat="56.895822802797" lon="14.837920592745">
        <ele>178.6</ele>
        <time>2020-03-23T17:48:43Z</time>
      </trkpt>
      <trkpt lat="56.895797740916" lon="14.837889914991">
        <ele>178.6</ele>
        <time>2020-03-23T17:48:45Z</time>
      </trkpt>
      <trkpt lat="56.895763794221" lon="14.837854711011">
        <ele>179</ele>
        <time>2020-03-23T17:48:47Z</time>
      </trkpt>
      <trkpt lat="56.895702606351" lon="14.837749685804">
        <ele>179.8</ele>
        <time>2020-03-23T17:48:52Z</time>
      </trkpt>
      <trkpt lat="56.895695062641" lon="14.837725797389">
        <ele>179.6</ele>
        <time>2020-03-23T17:48:54Z</time>
      </trkpt>
      <trkpt lat="56.895594060746" lon="14.837483309022">
        <ele>180</ele>
        <time>2020-03-23T17:49:03Z</time>
      </trkpt>
      <trkpt lat="56.895577213127" lon="14.837448859413">
        <ele>180.2</ele>
        <time>2020-03-23T17:49:04Z</time>
      </trkpt>
      <trkpt lat="56.895492053023" lon="14.837298823403">
        <ele>181.2</ele>
        <time>2020-03-23T17:49:09Z</time>
      </trkpt>
      <trkpt lat="56.895498339448" lon="14.837196648042">
        <ele>182</ele>
        <time>2020-03-23T17:49:13Z</time>
      </trkpt>
      <trkpt lat="56.895512169583" lon="14.837105369151">
        <ele>181.8</ele>
        <time>2020-03-23T17:49:16Z</time>
      </trkpt>
      <trkpt lat="56.895536980007" lon="14.836831616297">
        <ele>181.2</ele>
        <time>2020-03-23T17:49:23Z</time>
      </trkpt>
      <trkpt lat="56.895501859846" lon="14.836854331246">
        <ele>181</ele>
        <time>2020-03-23T17:49:31Z</time>
      </trkpt>
      <trkpt lat="56.895394571526" lon="14.836977042262">
        <ele>181.2</ele>
        <time>2020-03-23T17:49:38Z</time>
      </trkpt>
      <trkpt lat="56.895198602704" lon="14.836979221556">
        <ele>181.6</ele>
        <time>2020-03-23T17:49:47Z</time>
      </trkpt>
      <trkpt lat="56.89514864658" lon="14.836999589573">
        <ele>181.6</ele>
        <time>2020-03-23T17:49:49Z</time>
      </trkpt>
      <trkpt lat="56.895057032413" lon="14.837020376685">
        <ele>179.8</ele>
        <time>2020-03-23T17:49:53Z</time>
      </trkpt>
      <trkpt lat="56.894846227628" lon="14.837088018618">
        <ele>179.6</ele>
        <time>2020-03-23T17:50:01Z</time>
      </trkpt>
      <trkpt lat="56.894821501023" lon="14.83709623288">
        <ele>179.6</ele>
        <time>2020-03-23T17:50:02Z</time>
      </trkpt>
      <trkpt lat="56.894709602658" lon="14.837081396917">
        <ele>180.2</ele>
        <time>2020-03-23T17:50:07Z</time>
      </trkpt>
      <trkpt lat="56.894667022606" lon="14.837128670833">
        <ele>179.8</ele>
        <time>2020-03-23T17:50:10Z</time>
      </trkpt>
      <trkpt lat="56.894608516944" lon="14.837226319968">
        <ele>179.4</ele>
        <time>2020-03-23T17:50:15Z</time>
      </trkpt>
      <trkpt lat="56.894583035968" lon="14.837249537831">
        <ele>179.2</ele>
        <time>2020-03-23T17:50:17Z</time>
      </trkpt>
      <trkpt lat="56.894553866956" lon="14.837247777632">
        <ele>178.8</ele>
        <time>2020-03-23T17:50:20Z</time>
      </trkpt>
      <trkpt lat="56.894522434831" lon="14.837250795116">
        <ele>178.6</ele>
        <time>2020-03-23T17:50:23Z</time>
      </trkpt>
      <trkpt lat="56.894492511448" lon="14.837257584455">
        <ele>178.6</ele>
        <time>2020-03-23T17:50:25Z</time>
      </trkpt>
      <trkpt lat="56.89445211069" lon="14.837302846715">
        <ele>178.6</ele>
        <time>2020-03-23T17:50:28Z</time>
      </trkpt>
      <trkpt lat="56.894396873969" lon="14.837402256049">
        <ele>179</ele>
        <time>2020-03-23T17:50:32Z</time>
      </trkpt>
      <trkpt lat="56.894352114623" lon="14.837440896608">
        <ele>179.4</ele>
        <time>2020-03-23T17:50:34Z</time>
      </trkpt>
      <trkpt lat="56.894292938409" lon="14.83751868064">
        <ele>180</ele>
        <time>2020-03-23T17:50:36Z</time>
      </trkpt>
      <trkpt lat="56.894245245398" lon="14.837586406392">
        <ele>180.2</ele>
        <time>2020-03-23T17:50:38Z</time>
      </trkpt>
      <trkpt lat="56.894104094202" lon="14.837860326884">
        <ele>179.2</ele>
        <time>2020-03-23T17:50:45Z</time>
      </trkpt>
      <trkpt lat="56.894050198585" lon="14.837992844723">
        <ele>178.8</ele>
        <time>2020-03-23T17:50:48Z</time>
      </trkpt>
      <trkpt lat="56.894034440613" lon="14.83802243283">
        <ele>178.6</ele>
        <time>2020-03-23T17:50:49Z</time>
      </trkpt>
      <trkpt lat="56.893926900836" lon="14.838194177961">
        <ele>177.8</ele>
        <time>2020-03-23T17:50:56Z</time>
      </trkpt>
      <trkpt lat="56.893807374942" lon="14.838426188953">
        <ele>176.6</ele>
        <time>2020-03-23T17:51:03Z</time>
      </trkpt>
      <trkpt lat="56.893652980344" lon="14.83850439208">
        <ele>175.6</ele>
        <time>2020-03-23T17:51:11Z</time>
      </trkpt>
      <trkpt lat="56.893573184656" lon="14.838500452587">
        <ele>175.2</ele>
        <time>2020-03-23T17:51:15Z</time>
      </trkpt>
      <trkpt lat="56.893528844405" lon="14.838563568294">
        <ele>175</ele>
        <time>2020-03-23T17:51:19Z</time>
      </trkpt>
      <trkpt lat="56.893506800008" lon="14.838682339817">
        <ele>174.8</ele>
        <time>2020-03-23T17:51:26Z</time>
      </trkpt>
      <trkpt lat="56.893488443647" lon="14.838776133278">
        <ele>175</ele>
        <time>2020-03-23T17:51:28Z</time>
      </trkpt>
      <trkpt lat="56.893457514436" lon="14.838820808805">
        <ele>175.4</ele>
        <time>2020-03-23T17:51:30Z</time>
      </trkpt>
      <trkpt lat="56.893308484254" lon="14.83895785287">
        <ele>174.8</ele>
        <time>2020-03-23T17:51:36Z</time>
      </trkpt>
      <trkpt lat="56.893150904534" lon="14.839128759811">
        <ele>174.8</ele>
        <time>2020-03-23T17:51:43Z</time>
      </trkpt>
      <trkpt lat="56.893071025027" lon="14.839211572983">
        <ele>174.6</ele>
        <time>2020-03-23T17:51:46Z</time>
      </trkpt>
      <trkpt lat="56.893019476342" lon="14.839309389756">
        <ele>174.6</ele>
        <time>2020-03-23T17:51:49Z</time>
      </trkpt>
      <trkpt lat="56.892967005648" lon="14.839472752987">
        <ele>175.8</ele>
        <time>2020-03-23T17:51:54Z</time>
      </trkpt>
      <trkpt lat="56.892909505814" lon="14.839582555877">
        <ele>176.8</ele>
        <time>2020-03-23T17:51:58Z</time>
      </trkpt>
      <trkpt lat="56.892885617399" lon="14.839633853105">
        <ele>177</ele>
        <time>2020-03-23T17:52:00Z</time>
      </trkpt>
      <trkpt lat="56.892870949074" lon="14.839674924415">
        <ele>177</ele>
        <time>2020-03-23T17:52:02Z</time>
      </trkpt>
      <trkpt lat="56.892879498612" lon="14.839823116407">
        <ele>176</ele>
        <time>2020-03-23T17:52:10Z</time>
      </trkpt>
      <trkpt lat="56.892865165563" lon="14.839884723372">
        <ele>176</ele>
        <time>2020-03-23T17:52:12Z</time>
      </trkpt>
      <trkpt lat="56.892772461749" lon="14.840192674378">
        <ele>176.4</ele>
        <time>2020-03-23T17:52:18Z</time>
      </trkpt>
      <trkpt lat="56.892661233936" lon="14.840514958433">
        <ele>176.4</ele>
        <time>2020-03-23T17:52:25Z</time>
      </trkpt>
      <trkpt lat="56.892594430193" lon="14.840659546208">
        <ele>175.4</ele>
        <time>2020-03-23T17:52:29Z</time>
      </trkpt>
      <trkpt lat="56.892527877907" lon="14.840729283616">
        <ele>174.4</ele>
        <time>2020-03-23T17:52:33Z</time>
      </trkpt>
      <trkpt lat="56.892509773003" lon="14.840736743507">
        <ele>173.8</ele>
        <time>2020-03-23T17:52:35Z</time>
      </trkpt>
      <trkpt lat="56.892446489658" lon="14.840778569188">
        <ele>173.4</ele>
        <time>2020-03-23T17:52:39Z</time>
      </trkpt>
      <trkpt lat="56.892438275396" lon="14.840786280536">
        <ele>173.2</ele>
        <time>2020-03-23T17:52:40Z</time>
      </trkpt>
      <trkpt lat="56.892432659523" lon="14.840797596101">
        <ele>173.2</ele>
        <time>2020-03-23T17:52:41Z</time>
      </trkpt>
      <trkpt lat="56.892396617353" lon="14.840841768714">
        <ele>173.4</ele>
        <time>2020-03-23T17:52:43Z</time>
      </trkpt>
      <trkpt lat="56.892335094207" lon="14.840971855802">
        <ele>173.4</ele>
        <time>2020-03-23T17:52:47Z</time>
      </trkpt>
      <trkpt lat="56.892326041755" lon="14.841123903468">
        <ele>173.4</ele>
        <time>2020-03-23T17:52:51Z</time>
      </trkpt>
      <trkpt lat="56.892339788071" lon="14.841186516261">
        <ele>173.4</ele>
        <time>2020-03-23T17:52:53Z</time>
      </trkpt>
      <trkpt lat="56.892308691222" lon="14.841342335782">
        <ele>173.2</ele>
        <time>2020-03-23T17:52:57Z</time>
      </trkpt>
      <trkpt lat="56.892280947133" lon="14.841383658549">
        <ele>173.2</ele>
        <time>2020-03-23T17:52:59Z</time>
      </trkpt>
      <trkpt lat="56.892269631568" lon="14.841457586907">
        <ele>173.4</ele>
        <time>2020-03-23T17:53:02Z</time>
      </trkpt>
      <trkpt lat="56.892263764238" lon="14.841611478591">
        <ele>173.6</ele>
        <time>2020-03-23T17:53:07Z</time>
      </trkpt>
      <trkpt lat="56.892224704584" lon="14.841639306499">
        <ele>173.2</ele>
        <time>2020-03-23T17:53:10Z</time>
      </trkpt>
      <trkpt lat="56.892153542253" lon="14.841694124125">
        <ele>172.8</ele>
        <time>2020-03-23T17:53:15Z</time>
      </trkpt>
      <trkpt lat="56.892156643556" lon="14.841856062433">
        <ele>172.8</ele>
        <time>2020-03-23T17:53:27Z</time>
      </trkpt>
      <trkpt lat="56.892295615458" lon="14.84209184528">
        <ele>172.4</ele>
        <time>2020-03-23T17:53:36Z</time>
      </trkpt>
      <trkpt lat="56.89231304981" lon="14.842124953785">
        <ele>172.4</ele>
        <time>2020-03-23T17:53:37Z</time>
      </trkpt>
      <trkpt lat="56.892429474401" lon="14.842292675604">
        <ele>174.4</ele>
        <time>2020-03-23T17:53:43Z</time>
      </trkpt>
      <trkpt lat="56.892477251231" lon="14.842374818224">
        <ele>175.2</ele>
        <time>2020-03-23T17:53:46Z</time>
      </trkpt>
      <trkpt lat="56.892538858196" lon="14.842565506449">
        <ele>175.4</ele>
        <time>2020-03-23T17:53:50Z</time>
      </trkpt>
      <trkpt lat="56.892595938935" lon="14.842680506117">
        <ele>174.6</ele>
        <time>2020-03-23T17:53:56Z</time>
      </trkpt>
      <trkpt lat="56.892618653884" lon="14.842693162786">
        <ele>174.4</ele>
        <time>2020-03-23T17:53:58Z</time>
      </trkpt>
      <trkpt lat="56.892665843981" lon="14.842719230495">
        <ele>174.2</ele>
        <time>2020-03-23T17:54:03Z</time>
      </trkpt>
      <trkpt lat="56.892746058764" lon="14.842787207704">
        <ele>174.2</ele>
        <time>2020-03-23T17:54:13Z</time>
      </trkpt>
      <trkpt lat="56.89285116779" lon="14.842945793252">
        <ele>174</ele>
        <time>2020-03-23T17:54:18Z</time>
      </trkpt>
      <trkpt lat="56.892964658716" lon="14.8432133435">
        <ele>174.2</ele>
        <time>2020-03-23T17:54:24Z</time>
      </trkpt>
      <trkpt lat="56.893014950116" lon="14.843552475174">
        <ele>174.6</ele>
        <time>2020-03-23T17:54:30Z</time>
      </trkpt>
      <trkpt lat="56.893034312305" lon="14.843635455984">
        <ele>173.4</ele>
        <time>2020-03-23T17:54:33Z</time>
      </trkpt>
      <trkpt lat="56.893043783852" lon="14.843778451198">
        <ele>173</ele>
        <time>2020-03-23T17:54:39Z</time>
      </trkpt>
      <trkpt lat="56.893054596503" lon="14.844175250344">
        <ele>173</ele>
        <time>2020-03-23T17:54:47Z</time>
      </trkpt>
      <trkpt lat="56.893028696432" lon="14.844521338995">
        <ele>172.6</ele>
        <time>2020-03-23T17:54:52Z</time>
      </trkpt>
      <trkpt lat="56.893014363383" lon="14.844639272328">
        <ele>172.4</ele>
        <time>2020-03-23T17:54:54Z</time>
      </trkpt>
      <trkpt lat="56.892937417541" lon="14.844818561169">
        <ele>173.4</ele>
        <time>2020-03-23T17:54:58Z</time>
      </trkpt>
      <trkpt lat="56.892900285724" lon="14.84487463608">
        <ele>174.6</ele>
        <time>2020-03-23T17:55:00Z</time>
      </trkpt>
      <trkpt lat="56.892779754002" lon="14.845129697297">
        <ele>174.6</ele>
        <time>2020-03-23T17:55:07Z</time>
      </trkpt>
      <trkpt lat="56.892695515907" lon="14.845302029161">
        <ele>175</ele>
        <time>2020-03-23T17:55:12Z</time>
      </trkpt>
      <trkpt lat="56.892614965848" lon="14.845383501229">
        <ele>175.6</ele>
        <time>2020-03-23T17:55:18Z</time>
      </trkpt>
      <trkpt lat="56.892557968928" lon="14.845440917244">
        <ele>175.6</ele>
        <time>2020-03-23T17:55:23Z</time>
      </trkpt>
      <trkpt lat="56.892538942015" lon="14.845466230582">
        <ele>175.4</ele>
        <time>2020-03-23T17:55:25Z</time>
      </trkpt>
      <trkpt lat="56.892456212662" lon="14.845545942451">
        <ele>175</ele>
        <time>2020-03-23T17:55:43Z</time>
      </trkpt>
      <trkpt lat="56.892519579826" lon="14.845481318002">
        <ele>175</ele>
        <time>2020-03-23T17:55:47Z</time>
      </trkpt>
      <trkpt lat="56.89269526445" lon="14.8453591099">
        <ele>175.6</ele>
        <time>2020-03-23T17:55:53Z</time>
      </trkpt>
      <trkpt lat="56.892804648245" lon="14.845314434373">
        <ele>176.6</ele>
        <time>2020-03-23T17:55:57Z</time>
      </trkpt>
      <trkpt lat="56.89298695457" lon="14.845198261239">
        <ele>176.6</ele>
        <time>2020-03-23T17:56:03Z</time>
      </trkpt>
      <trkpt lat="56.893157610054" lon="14.845076136956">
        <ele>176</ele>
        <time>2020-03-23T17:56:08Z</time>
      </trkpt>
      <trkpt lat="56.893254756275" lon="14.845011344869">
        <ele>175.4</ele>
        <time>2020-03-23T17:56:11Z</time>
      </trkpt>
      <trkpt lat="56.893307478426" lon="14.844963065125">
        <ele>174.2</ele>
        <time>2020-03-23T17:56:13Z</time>
      </trkpt>
      <trkpt lat="56.893332707945" lon="14.844969183912">
        <ele>173.8</ele>
        <time>2020-03-23T17:56:14Z</time>
      </trkpt>
      <trkpt lat="56.893403115905" lon="14.845201781637">
        <ele>173</ele>
        <time>2020-03-23T17:56:20Z</time>
      </trkpt>
      <trkpt lat="56.8934119169" lon="14.845226256785">
        <ele>172.6</ele>
        <time>2020-03-23T17:56:21Z</time>
      </trkpt>
      <trkpt lat="56.893443349025" lon="14.845245535155">
        <ele>171.8</ele>
        <time>2020-03-23T17:56:23Z</time>
      </trkpt>
      <trkpt lat="56.8934957359" lon="14.845242517671">
        <ele>171.2</ele>
        <time>2020-03-23T17:56:26Z</time>
      </trkpt>
      <trkpt lat="56.893525240188" lon="14.845226927337">
        <ele>170.6</ele>
        <time>2020-03-23T17:56:28Z</time>
      </trkpt>
      <trkpt lat="56.893581985651" lon="14.845240589834">
        <ele>169.4</ele>
        <time>2020-03-23T17:56:31Z</time>
      </trkpt>
      <trkpt lat="56.893634791621" lon="14.845281744963">
        <ele>168.4</ele>
        <time>2020-03-23T17:56:33Z</time>
      </trkpt>
      <trkpt lat="56.893728920358" lon="14.845391883129">
        <ele>167.6</ele>
        <time>2020-03-23T17:56:38Z</time>
      </trkpt>
      <trkpt lat="56.893781139595" lon="14.845406132359">
        <ele>167.8</ele>
        <time>2020-03-23T17:56:40Z</time>
      </trkpt>
      <trkpt lat="56.893921871696" lon="14.845528340461">
        <ele>167.6</ele>
        <time>2020-03-23T17:56:51Z</time>
      </trkpt>
      <trkpt lat="56.893963110644" lon="14.84556362826">
        <ele>167.4</ele>
        <time>2020-03-23T17:56:54Z</time>
      </trkpt>
      <trkpt lat="56.894020275202" lon="14.845541332406">
        <ele>167</ele>
        <time>2020-03-23T17:56:59Z</time>
      </trkpt>
      <trkpt lat="56.894041565228" lon="14.845532699049">
        <ele>166.8</ele>
        <time>2020-03-23T17:57:01Z</time>
      </trkpt>
      <trkpt lat="56.894068554946" lon="14.84552507152">
        <ele>167.2</ele>
        <time>2020-03-23T17:57:04Z</time>
      </trkpt>
      <trkpt lat="56.894107782238" lon="14.845532028497">
        <ele>167.2</ele>
        <time>2020-03-23T17:57:07Z</time>
      </trkpt>
      <trkpt lat="56.894171149402" lon="14.845695559366">
        <ele>167.2</ele>
        <time>2020-03-23T17:57:13Z</time>
      </trkpt>
      <trkpt lat="56.894208281219" lon="14.845834447449">
        <ele>167.4</ele>
        <time>2020-03-23T17:57:17Z</time>
      </trkpt>
      <trkpt lat="56.8943423078" lon="14.845866466307">
        <ele>167.2</ele>
        <time>2020-03-23T17:57:36Z</time>
      </trkpt>
      <trkpt lat="56.894379523436" lon="14.845844338091">
        <ele>167</ele>
        <time>2020-03-23T17:57:38Z</time>
      </trkpt>
      <trkpt lat="56.894469042128" lon="14.845816677821">
        <ele>166.4</ele>
        <time>2020-03-23T17:57:42Z</time>
      </trkpt>
      <trkpt lat="56.89459795575" lon="14.845823215703">
        <ele>166</ele>
        <time>2020-03-23T17:57:49Z</time>
      </trkpt>
      <trkpt lat="56.894767437768" lon="14.845942322502">
        <ele>166.8</ele>
        <time>2020-03-23T17:57:58Z</time>
      </trkpt>
      <trkpt lat="56.894848406922" lon="14.846044078768">
        <ele>167.4</ele>
        <time>2020-03-23T17:58:02Z</time>
      </trkpt>
      <trkpt lat="56.894958461269" lon="14.846321603477">
        <ele>167.6</ele>
        <time>2020-03-23T17:58:09Z</time>
      </trkpt>
      <trkpt lat="56.894982517322" lon="14.84638840722">
        <ele>167.6</ele>
        <time>2020-03-23T17:58:11Z</time>
      </trkpt>
      <trkpt lat="56.895046219762" lon="14.846517237023">
        <ele>167.6</ele>
        <time>2020-03-23T17:58:16Z</time>
      </trkpt>
      <trkpt lat="56.89508410595" lon="14.846533330271">
        <ele>167.6</ele>
        <time>2020-03-23T17:58:18Z</time>
      </trkpt>
      <trkpt lat="56.895121070129" lon="14.846609857018">
        <ele>167.6</ele>
        <time>2020-03-23T17:58:21Z</time>
      </trkpt>
      <trkpt lat="56.895198518885" lon="14.846922082793">
        <ele>168.2</ele>
        <time>2020-03-23T17:58:30Z</time>
      </trkpt>
      <trkpt lat="56.895199440894" lon="14.846958795515">
        <ele>168.4</ele>
        <time>2020-03-23T17:58:32Z</time>
      </trkpt>
      <trkpt lat="56.895218132531" lon="14.847069352776">
        <ele>168.6</ele>
        <time>2020-03-23T17:58:35Z</time>
      </trkpt>
      <trkpt lat="56.895221150015" lon="14.847108580068">
        <ele>168.4</ele>
        <time>2020-03-23T17:58:36Z</time>
      </trkpt>
      <trkpt lat="56.895236907987" lon="14.847209330506">
        <ele>168.4</ele>
        <time>2020-03-23T17:58:40Z</time>
      </trkpt>
      <trkpt lat="56.895284936274" lon="14.847387864976">
        <ele>167.8</ele>
        <time>2020-03-23T17:58:47Z</time>
      </trkpt>
      <trkpt lat="56.895295916563" lon="14.847429355381">
        <ele>168</ele>
        <time>2020-03-23T17:58:49Z</time>
      </trkpt>
      <trkpt lat="56.89531544639" lon="14.847527339792">
        <ele>168</ele>
        <time>2020-03-23T17:58:52Z</time>
      </trkpt>
      <trkpt lat="56.895320726987" lon="14.847585258721">
        <ele>168.6</ele>
        <time>2020-03-23T17:58:57Z</time>
      </trkpt>
      <trkpt lat="56.895389877662" lon="14.847688691367">
        <ele>168.6</ele>
        <time>2020-03-23T17:59:03Z</time>
      </trkpt>
      <trkpt lat="56.895445533478" lon="14.847734456541">
        <ele>168.6</ele>
        <time>2020-03-23T17:59:06Z</time>
      </trkpt>
      <trkpt lat="56.895456094672" lon="14.847753148178">
        <ele>168.6</ele>
        <time>2020-03-23T17:59:08Z</time>
      </trkpt>
      <trkpt lat="56.895464811848" lon="14.847778796792">
        <ele>168.6</ele>
        <time>2020-03-23T17:59:12Z</time>
      </trkpt>
      <trkpt lat="56.895472774653" lon="14.847782736285">
        <ele>168.6</ele>
        <time>2020-03-23T17:59:13Z</time>
      </trkpt>
      <trkpt lat="56.895507978633" lon="14.847789525624">
        <ele>169</ele>
        <time>2020-03-23T17:59:17Z</time>
      </trkpt>
      <trkpt lat="56.895519294198" lon="14.847794470945">
        <ele>169</ele>
        <time>2020-03-23T17:59:18Z</time>
      </trkpt>
      <trkpt lat="56.895562796259" lon="14.847844510888">
        <ele>169</ele>
        <time>2020-03-23T17:59:22Z</time>
      </trkpt>
      <trkpt lat="56.895587690502" lon="14.847925144766">
        <ele>169.2</ele>
        <time>2020-03-23T17:59:26Z</time>
      </trkpt>
      <trkpt lat="56.895588361054" lon="14.847999576038">
        <ele>169.6</ele>
        <time>2020-03-23T17:59:28Z</time>
      </trkpt>
      <trkpt lat="56.89559456366" lon="14.848053806931">
        <ele>169.6</ele>
        <time>2020-03-23T17:59:30Z</time>
      </trkpt>
      <trkpt lat="56.89560965108" lon="14.848096051707">
        <ele>169.6</ele>
        <time>2020-03-23T17:59:32Z</time>
      </trkpt>
      <trkpt lat="56.895627839803" lon="14.848111977317">
        <ele>169.6</ele>
        <time>2020-03-23T17:59:34Z</time>
      </trkpt>
      <trkpt lat="56.895659271928" lon="14.848139553768">
        <ele>169.6</ele>
        <time>2020-03-23T17:59:36Z</time>
      </trkpt>
      <trkpt lat="56.895685171999" lon="14.848167465495">
        <ele>169.6</ele>
        <time>2020-03-23T17:59:38Z</time>
      </trkpt>
      <trkpt lat="56.895695565555" lon="14.848187414417">
        <ele>169.6</ele>
        <time>2020-03-23T17:59:40Z</time>
      </trkpt>
      <trkpt lat="56.895708389862" lon="14.84822152875">
        <ele>169.8</ele>
        <time>2020-03-23T17:59:43Z</time>
      </trkpt>
      <trkpt lat="56.895761112013" lon="14.848261175137">
        <ele>169.2</ele>
        <time>2020-03-23T17:59:52Z</time>
      </trkpt>
      <trkpt lat="56.895762453117" lon="14.848296798212">
        <ele>169.4</ele>
        <time>2020-03-23T17:59:55Z</time>
      </trkpt>
      <trkpt lat="56.895783659324" lon="14.84835815372">
        <ele>169.4</ele>
        <time>2020-03-23T18:00:03Z</time>
      </trkpt>
      <trkpt lat="56.895800674581" lon="14.848384305248">
        <ele>169.4</ele>
        <time>2020-03-23T18:00:05Z</time>
      </trkpt>
      <trkpt lat="56.895799417296" lon="14.848410456776">
        <ele>169.6</ele>
        <time>2020-03-23T18:00:07Z</time>
      </trkpt>
      <trkpt lat="56.895802853875" lon="14.848415318278">
        <ele>170</ele>
        <time>2020-03-23T18:00:09Z</time>
      </trkpt>
      <trkpt lat="56.895827748118" lon="14.848412049337">
        <ele>170.2</ele>
        <time>2020-03-23T18:00:12Z</time>
      </trkpt>
      <trkpt lat="56.895841075339" lon="14.848391765139">
        <ele>170.2</ele>
        <time>2020-03-23T18:00:14Z</time>
      </trkpt>
      <trkpt lat="56.895884158305" lon="14.848383215601">
        <ele>170</ele>
        <time>2020-03-23T18:00:18Z</time>
      </trkpt>
      <trkpt lat="56.895954482446" lon="14.848363350498">
        <ele>169.8</ele>
        <time>2020-03-23T18:00:22Z</time>
      </trkpt>
      <trkpt lat="56.896031009193" lon="14.848446331308">
        <ele>170.4</ele>
        <time>2020-03-23T18:00:27Z</time>
      </trkpt>
      <trkpt lat="56.896043498224" lon="14.848499221097">
        <ele>170.6</ele>
        <time>2020-03-23T18:00:29Z</time>
      </trkpt>
      <trkpt lat="56.89609161033" lon="14.848605922684">
        <ele>171</ele>
        <time>2020-03-23T18:00:32Z</time>
      </trkpt>
      <trkpt lat="56.896145086852" lon="14.848699380869">
        <ele>171.6</ele>
        <time>2020-03-23T18:00:35Z</time>
      </trkpt>
      <trkpt lat="56.896166795973" lon="14.848716144669">
        <ele>171.8</ele>
        <time>2020-03-23T18:00:36Z</time>
      </trkpt>
      <trkpt lat="56.896183140678" lon="14.848741877102">
        <ele>171.6</ele>
        <time>2020-03-23T18:00:37Z</time>
      </trkpt>
      <trkpt lat="56.896215243355" lon="14.848891494017">
        <ele>171</ele>
        <time>2020-03-23T18:00:42Z</time>
      </trkpt>
      <trkpt lat="56.896215159536" lon="14.848954022991">
        <ele>170.8</ele>
        <time>2020-03-23T18:00:45Z</time>
      </trkpt>
      <trkpt lat="56.896300571097" lon="14.848867857059">
        <ele>170.8</ele>
        <time>2020-03-23T18:00:55Z</time>
      </trkpt>
      <trkpt lat="56.89634390552" lon="14.848815637822">
        <ele>171</ele>
        <time>2020-03-23T18:00:57Z</time>
      </trkpt>
      <trkpt lat="56.896421605733" lon="14.848610700367">
        <ele>170.6</ele>
        <time>2020-03-23T18:01:02Z</time>
      </trkpt>
      <trkpt lat="56.896492181331" lon="14.848284979733">
        <ele>171.4</ele>
        <time>2020-03-23T18:01:11Z</time>
      </trkpt>
      <trkpt lat="56.896650180146" lon="14.848130752773">
        <ele>171</ele>
        <time>2020-03-23T18:01:20Z</time>
      </trkpt>
      <trkpt lat="56.896812789006" lon="14.848178948698">
        <ele>169.8</ele>
        <time>2020-03-23T18:01:30Z</time>
      </trkpt>
      <trkpt lat="56.896815722671" lon="14.848226306433">
        <ele>169.6</ele>
        <time>2020-03-23T18:01:35Z</time>
      </trkpt>
      <trkpt lat="56.896891411228" lon="14.848278022756">
        <ele>169.6</ele>
        <time>2020-03-23T18:01:45Z</time>
      </trkpt>
      <trkpt lat="56.896926615208" lon="14.848264192621">
        <ele>169.4</ele>
        <time>2020-03-23T18:01:49Z</time>
      </trkpt>
      <trkpt lat="56.896953772564" lon="14.848252709418">
        <ele>169.4</ele>
        <time>2020-03-23T18:01:52Z</time>
      </trkpt>
      <trkpt lat="56.896983528309" lon="14.848251284495">
        <ele>169.4</ele>
        <time>2020-03-23T18:01:55Z</time>
      </trkpt>
      <trkpt lat="56.89703960322" lon="14.848227479899">
        <ele>169.4</ele>
        <time>2020-03-23T18:01:58Z</time>
      </trkpt>
      <trkpt lat="56.897084781661" lon="14.848196718326">
        <ele>169.4</ele>
        <time>2020-03-23T18:02:01Z</time>
      </trkpt>
      <trkpt lat="56.897130882111" lon="14.848206860425">
        <ele>169.4</ele>
        <time>2020-03-23T18:02:06Z</time>
      </trkpt>
      <trkpt lat="56.897137922907" lon="14.848259917852">
        <ele>169.4</ele>
        <time>2020-03-23T18:02:10Z</time>
      </trkpt>
      <trkpt lat="56.897158877657" lon="14.848340048816">
        <ele>169.2</ele>
        <time>2020-03-23T18:02:16Z</time>
      </trkpt>
      <trkpt lat="56.897162900969" lon="14.848524282978">
        <ele>169.6</ele>
        <time>2020-03-23T18:02:23Z</time>
      </trkpt>
      <trkpt lat="56.897172791611" lon="14.848533586887">
        <ele>169.6</ele>
        <time>2020-03-23T18:02:24Z</time>
      </trkpt>
      <trkpt lat="56.897198356406" lon="14.848574909654">
        <ele>169.6</ele>
        <time>2020-03-23T18:02:26Z</time>
      </trkpt>
      <trkpt lat="56.897286701632" lon="14.848623776131">
        <ele>169.8</ele>
        <time>2020-03-23T18:02:32Z</time>
      </trkpt>
      <trkpt lat="56.897321989431" lon="14.848656968455">
        <ele>169.8</ele>
        <time>2020-03-23T18:02:35Z</time>
      </trkpt>
      <trkpt lat="56.897381165645" lon="14.848732908469">
        <ele>169.6</ele>
        <time>2020-03-23T18:02:40Z</time>
      </trkpt>
      <trkpt lat="56.897479401513" lon="14.848822259523">
        <ele>168.8</ele>
        <time>2020-03-23T18:02:45Z</time>
      </trkpt>
      <trkpt lat="56.897489962707" lon="14.848833155993">
        <ele>168.6</ele>
        <time>2020-03-23T18:02:46Z</time>
      </trkpt>
      <trkpt lat="56.897581409236" lon="14.848914376604">
        <ele>167.8</ele>
        <time>2020-03-23T18:02:56Z</time>
      </trkpt>
      <trkpt lat="56.897570345128" lon="14.849002638011">
        <ele>167.6</ele>
        <time>2020-03-23T18:03:00Z</time>
      </trkpt>
      <trkpt lat="56.897565483626" lon="14.84906474789">
        <ele>167.8</ele>
        <time>2020-03-23T18:03:02Z</time>
      </trkpt>
      <trkpt lat="56.897547713998" lon="14.849123840285">
        <ele>167.8</ele>
        <time>2020-03-23T18:03:05Z</time>
      </trkpt>
      <trkpt lat="56.897567746739" lon="14.849260968169">
        <ele>168.2</ele>
        <time>2020-03-23T18:03:09Z</time>
      </trkpt>
      <trkpt lat="56.897566489454" lon="14.849302374755">
        <ele>168.6</ele>
        <time>2020-03-23T18:03:11Z</time>
      </trkpt>
      <trkpt lat="56.897631616817" lon="14.849421733011">
        <ele>168</ele>
        <time>2020-03-23T18:03:22Z</time>
      </trkpt>
      <trkpt lat="56.897675705611" lon="14.849458781009">
        <ele>167.8</ele>
        <time>2020-03-23T18:03:26Z</time>
      </trkpt>
      <trkpt lat="56.897708730297" lon="14.849468168737">
        <ele>167.6</ele>
        <time>2020-03-23T18:03:29Z</time>
      </trkpt>
      <trkpt lat="56.897727254296" lon="14.849487447107">
        <ele>167.6</ele>
        <time>2020-03-23T18:03:31Z</time>
      </trkpt>
      <trkpt lat="56.897761787724" lon="14.849498175939">
        <ele>167.6</ele>
        <time>2020-03-23T18:03:34Z</time>
      </trkpt>
      <trkpt lat="56.897775450221" lon="14.849497924482">
        <ele>167.6</ele>
        <time>2020-03-23T18:03:36Z</time>
      </trkpt>
      <trkpt lat="56.897779892628" lon="14.849471856773">
        <ele>167.8</ele>
        <time>2020-03-23T18:03:38Z</time>
      </trkpt>
      <trkpt lat="56.897786765786" lon="14.849430366368">
        <ele>167.8</ele>
        <time>2020-03-23T18:03:41Z</time>
      </trkpt>
      <trkpt lat="56.897796991704" lon="14.849410836541">
        <ele>167.6</ele>
        <time>2020-03-23T18:03:43Z</time>
      </trkpt>
      <trkpt lat="56.897799757731" lon="14.849405555944">
        <ele>167.6</ele>
        <time>2020-03-23T18:03:44Z</time>
      </trkpt>
      <trkpt lat="56.897826160716" lon="14.849385104108">
        <ele>167.4</ele>
        <time>2020-03-23T18:03:46Z</time>
      </trkpt>
      <trkpt lat="56.897851474054" lon="14.849368843222">
        <ele>167.4</ele>
        <time>2020-03-23T18:03:48Z</time>
      </trkpt>
      <trkpt lat="56.897992876707" lon="14.849247976224">
        <ele>167.8</ele>
        <time>2020-03-23T18:03:56Z</time>
      </trkpt>
      <trkpt lat="56.897918696892" lon="14.849302039479">
        <ele>167.2</ele>
        <time>2020-03-23T18:04:06Z</time>
      </trkpt>
      <trkpt lat="56.897944261687" lon="14.84953161972">
        <ele>167.2</ele>
        <time>2020-03-23T18:04:34Z</time>
      </trkpt>
      <trkpt lat="56.897882989998" lon="14.849845270418">
        <ele>167.6</ele>
        <time>2020-03-23T18:04:44Z</time>
      </trkpt>
      <trkpt lat="56.897872344985" lon="14.849889191574">
        <ele>167.6</ele>
        <time>2020-03-23T18:04:46Z</time>
      </trkpt>
      <trkpt lat="56.897857844298" lon="14.849966556511">
        <ele>167.2</ele>
        <time>2020-03-23T18:04:49Z</time>
      </trkpt>
      <trkpt lat="56.897851557873" lon="14.849999497378">
        <ele>167.2</ele>
        <time>2020-03-23T18:04:51Z</time>
      </trkpt>
      <trkpt lat="56.897821802128" lon="14.850087758785">
        <ele>167.2</ele>
        <time>2020-03-23T18:04:55Z</time>
      </trkpt>
      <trkpt lat="56.897816689169" lon="14.850111228105">
        <ele>167.2</ele>
        <time>2020-03-23T18:04:56Z</time>
      </trkpt>
      <trkpt lat="56.897791627288" lon="14.850156658003">
        <ele>167.4</ele>
        <time>2020-03-23T18:04:58Z</time>
      </trkpt>
      <trkpt lat="56.897766146312" lon="14.850182474255">
        <ele>167.6</ele>
        <time>2020-03-23T18:05:00Z</time>
      </trkpt>
      <trkpt lat="56.897723650079" lon="14.850294959353">
        <ele>167.8</ele>
        <time>2020-03-23T18:05:04Z</time>
      </trkpt>
      <trkpt lat="56.897711244867" lon="14.850339718699">
        <ele>167.8</ele>
        <time>2020-03-23T18:05:06Z</time>
      </trkpt>
      <trkpt lat="56.897691463583" lon="14.850433093065">
        <ele>168</ele>
        <time>2020-03-23T18:05:10Z</time>
      </trkpt>
      <trkpt lat="56.897636813595" lon="14.850523366128">
        <ele>168.6</ele>
        <time>2020-03-23T18:05:14Z</time>
      </trkpt>
      <trkpt lat="56.897621893813" lon="14.850594779916">
        <ele>168.8</ele>
        <time>2020-03-23T18:05:17Z</time>
      </trkpt>
      <trkpt lat="56.897565902721" lon="14.850691255585">
        <ele>169.4</ele>
        <time>2020-03-23T18:05:23Z</time>
      </trkpt>
      <trkpt lat="56.897556850269" lon="14.850708689937">
        <ele>169.6</ele>
        <time>2020-03-23T18:05:24Z</time>
      </trkpt>
      <trkpt lat="56.897516281873" lon="14.850758646061">
        <ele>170.2</ele>
        <time>2020-03-23T18:05:27Z</time>
      </trkpt>
      <trkpt lat="56.897432630511" lon="14.850889655158">
        <ele>170.4</ele>
        <time>2020-03-23T18:05:34Z</time>
      </trkpt>
      <trkpt lat="56.897421063489" lon="14.85093894073">
        <ele>170.6</ele>
        <time>2020-03-23T18:05:36Z</time>
      </trkpt>
      <trkpt lat="56.897416621082" lon="14.850953860512">
        <ele>170.6</ele>
        <time>2020-03-23T18:05:37Z</time>
      </trkpt>
      <trkpt lat="56.897406143707" lon="14.85097414471">
        <ele>170.8</ele>
        <time>2020-03-23T18:05:39Z</time>
      </trkpt>
      <trkpt lat="56.897389296088" lon="14.850990154139">
        <ele>171</ele>
        <time>2020-03-23T18:05:41Z</time>
      </trkpt>
      <trkpt lat="56.897359456524" lon="14.851033740019">
        <ele>171.2</ele>
        <time>2020-03-23T18:05:44Z</time>
      </trkpt>
      <trkpt lat="56.897300615586" lon="14.85115016461">
        <ele>171.6</ele>
        <time>2020-03-23T18:05:49Z</time>
      </trkpt>
      <trkpt lat="56.897292568962" lon="14.851165503487">
        <ele>171.8</ele>
        <time>2020-03-23T18:05:50Z</time>
      </trkpt>
      <trkpt lat="56.897283432691" lon="14.851178411613">
        <ele>171.8</ele>
        <time>2020-03-23T18:05:51Z</time>
      </trkpt>
      <trkpt lat="56.897263819045" lon="14.851267343572">
        <ele>172.8</ele>
        <time>2020-03-23T18:05:57Z</time>
      </trkpt>
      <trkpt lat="56.897260801561" lon="14.851274300549">
        <ele>173</ele>
        <time>2020-03-23T18:05:58Z</time>
      </trkpt>
      <trkpt lat="56.897240014449" lon="14.851309755986">
        <ele>172.4</ele>
        <time>2020-03-23T18:06:03Z</time>
      </trkpt>
      <trkpt lat="56.897219562613" lon="14.851329704908">
        <ele>172.4</ele>
        <time>2020-03-23T18:06:05Z</time>
      </trkpt>
      <trkpt lat="56.897166672824" lon="14.851427018767">
        <ele>173</ele>
        <time>2020-03-23T18:06:11Z</time>
      </trkpt>
      <trkpt lat="56.897164744987" lon="14.85143682559">
        <ele>173.2</ele>
        <time>2020-03-23T18:06:12Z</time>
      </trkpt>
      <trkpt lat="56.89717287543" lon="14.851463563851">
        <ele>173.2</ele>
        <time>2020-03-23T18:06:16Z</time>
      </trkpt>
      <trkpt lat="56.897169690308" lon="14.851480998203">
        <ele>173</ele>
        <time>2020-03-23T18:06:18Z</time>
      </trkpt>
      <trkpt lat="56.897170612317" lon="14.851493319596">
        <ele>172.8</ele>
        <time>2020-03-23T18:06:20Z</time>
      </trkpt>
      <trkpt lat="56.897173210706" lon="14.851511173043">
        <ele>172.6</ele>
        <time>2020-03-23T18:06:22Z</time>
      </trkpt>
      <trkpt lat="56.897158039467" lon="14.85155920133">
        <ele>172.8</ele>
        <time>2020-03-23T18:06:25Z</time>
      </trkpt>
      <trkpt lat="56.897140018382" lon="14.851599015355">
        <ele>172.8</ele>
        <time>2020-03-23T18:06:27Z</time>
      </trkpt>
      <trkpt lat="56.897134234871" lon="14.85166816603">
        <ele>172.8</ele>
        <time>2020-03-23T18:06:32Z</time>
      </trkpt>
      <trkpt lat="56.897137000898" lon="14.851713931204">
        <ele>172.8</ele>
        <time>2020-03-23T18:06:34Z</time>
      </trkpt>
      <trkpt lat="56.897126104428" lon="14.851825661931">
        <ele>173</ele>
        <time>2020-03-23T18:06:41Z</time>
      </trkpt>
      <trkpt lat="56.897122919306" lon="14.851866230327">
        <ele>173.2</ele>
        <time>2020-03-23T18:06:44Z</time>
      </trkpt>
      <trkpt lat="56.897097941244" lon="14.851893471502">
        <ele>173</ele>
        <time>2020-03-23T18:06:46Z</time>
      </trkpt>
      <trkpt lat="56.897082434729" lon="14.851989108981">
        <ele>173</ele>
        <time>2020-03-23T18:06:50Z</time>
      </trkpt>
      <trkpt lat="56.897072879363" lon="14.85203361687">
        <ele>173</ele>
        <time>2020-03-23T18:06:53Z</time>
      </trkpt>
      <trkpt lat="56.897068185499" lon="14.852077538026">
        <ele>173</ele>
        <time>2020-03-23T18:06:55Z</time>
      </trkpt>
      <trkpt lat="56.897041111962" lon="14.852141827199">
        <ele>173</ele>
        <time>2020-03-23T18:06:59Z</time>
      </trkpt>
      <trkpt lat="56.89703457408" lon="14.852154232411">
        <ele>173</ele>
        <time>2020-03-23T18:07:00Z</time>
      </trkpt>
      <trkpt lat="56.897017055909" lon="14.852168733098">
        <ele>173</ele>
        <time>2020-03-23T18:07:02Z</time>
      </trkpt>
      <trkpt lat="56.896996939349" lon="14.852203182707">
        <ele>173</ele>
        <time>2020-03-23T18:07:04Z</time>
      </trkpt>
      <trkpt lat="56.897003058136" lon="14.852240146886">
        <ele>173</ele>
        <time>2020-03-23T18:07:06Z</time>
      </trkpt>
      <trkpt lat="56.897003728688" lon="14.852271327554">
        <ele>173</ele>
        <time>2020-03-23T18:07:08Z</time>
      </trkpt>
      <trkpt lat="56.896994508598" lon="14.852344250084">
        <ele>173</ele>
        <time>2020-03-23T18:07:11Z</time>
      </trkpt>
      <trkpt lat="56.896990401467" lon="14.852393870932">
        <ele>172.8</ele>
        <time>2020-03-23T18:07:15Z</time>
      </trkpt>
      <trkpt lat="56.896983276852" lon="14.852442988866">
        <ele>173</ele>
        <time>2020-03-23T18:07:19Z</time>
      </trkpt>
      <trkpt lat="56.896983863585" lon="14.852458327743">
        <ele>173.2</ele>
        <time>2020-03-23T18:07:20Z</time>
      </trkpt>
      <trkpt lat="56.896981432834" lon="14.852476600285">
        <ele>173.2</ele>
        <time>2020-03-23T18:07:22Z</time>
      </trkpt>
      <trkpt lat="56.896975146409" lon="14.852513145369">
        <ele>173.2</ele>
        <time>2020-03-23T18:07:25Z</time>
      </trkpt>
      <trkpt lat="56.896971206916" lon="14.852565113149">
        <ele>173.4</ele>
        <time>2020-03-23T18:07:29Z</time>
      </trkpt>
      <trkpt lat="56.897006243258" lon="14.852587325184">
        <ele>173.6</ele>
        <time>2020-03-23T18:07:33Z</time>
      </trkpt>
      <trkpt lat="56.897025689266" lon="14.852591097039">
        <ele>173.8</ele>
        <time>2020-03-23T18:07:35Z</time>
      </trkpt>
      <trkpt lat="56.897037256288" lon="14.852604508079">
        <ele>174</ele>
        <time>2020-03-23T18:07:36Z</time>
      </trkpt>
      <trkpt lat="56.897050415871" lon="14.852620601327">
        <ele>174.4</ele>
        <time>2020-03-23T18:07:37Z</time>
      </trkpt>
      <trkpt lat="56.897087463869" lon="14.852623199716">
        <ele>174.6</ele>
        <time>2020-03-23T18:07:40Z</time>
      </trkpt>
      <trkpt lat="56.897150831033" lon="14.85267734679">
        <ele>174.4</ele>
        <time>2020-03-23T18:07:54Z</time>
      </trkpt>
      <trkpt lat="56.897162146598" lon="14.852661588818">
        <ele>174.4</ele>
        <time>2020-03-23T18:07:56Z</time>
      </trkpt>
      <trkpt lat="56.897198607863" lon="14.85259436598">
        <ele>174.8</ele>
        <time>2020-03-23T18:08:02Z</time>
      </trkpt>
      <trkpt lat="56.89723741606" lon="14.852442737409">
        <ele>173.8</ele>
        <time>2020-03-23T18:08:09Z</time>
      </trkpt>
      <trkpt lat="56.897226603409" lon="14.852382220091">
        <ele>173.4</ele>
        <time>2020-03-23T18:08:11Z</time>
      </trkpt>
      <trkpt lat="56.897226435771" lon="14.85238481848">
        <ele>173</ele>
        <time>2020-03-23T18:08:13Z</time>
      </trkpt>
      <trkpt lat="56.897245714141" lon="14.852469810946">
        <ele>173</ele>
        <time>2020-03-23T18:08:19Z</time>
      </trkpt>
      <trkpt lat="56.897218305328" lon="14.852492609714">
        <ele>173.8</ele>
        <time>2020-03-23T18:08:23Z</time>
      </trkpt>
      <trkpt lat="56.897210342523" lon="14.852507613315">
        <ele>174</ele>
        <time>2020-03-23T18:08:24Z</time>
      </trkpt>
      <trkpt lat="56.897205900116" lon="14.852594868894">
        <ele>174.4</ele>
        <time>2020-03-23T18:08:28Z</time>
      </trkpt>
      <trkpt lat="56.897199781329" lon="14.852604340441">
        <ele>174.4</ele>
        <time>2020-03-23T18:08:29Z</time>
      </trkpt>
      <trkpt lat="56.897179245674" lon="14.85274104923">
        <ele>174.4</ele>
        <time>2020-03-23T18:08:38Z</time>
      </trkpt>
      <trkpt lat="56.897143119685" lon="14.852856635631">
        <ele>174.2</ele>
        <time>2020-03-23T18:08:48Z</time>
      </trkpt>
      <trkpt lat="56.897040189953" lon="14.853151929968">
        <ele>173.4</ele>
        <time>2020-03-23T18:08:59Z</time>
      </trkpt>
      <trkpt lat="56.897043542713" lon="14.853218566073">
        <ele>173.2</ele>
        <time>2020-03-23T18:09:01Z</time>
      </trkpt>
      <trkpt lat="56.897006746172" lon="14.853302552711">
        <ele>173</ele>
        <time>2020-03-23T18:09:05Z</time>
      </trkpt>
      <trkpt lat="56.896968440889" lon="14.853394334516">
        <ele>173.4</ele>
        <time>2020-03-23T18:09:09Z</time>
      </trkpt>
      <trkpt lat="56.896953856383" lon="14.853440770242">
        <ele>173.8</ele>
        <time>2020-03-23T18:09:11Z</time>
      </trkpt>
      <trkpt lat="56.896953437288" lon="14.853470442168">
        <ele>174</ele>
        <time>2020-03-23T18:09:12Z</time>
      </trkpt>
      <trkpt lat="56.896945306845" lon="14.853518218998">
        <ele>174</ele>
        <time>2020-03-23T18:09:14Z</time>
      </trkpt>
      <trkpt lat="56.896948827243" lon="14.853547723286">
        <ele>173.8</ele>
        <time>2020-03-23T18:09:16Z</time>
      </trkpt>
      <trkpt lat="56.896971206916" lon="14.853599523428">
        <ele>173.4</ele>
        <time>2020-03-23T18:09:20Z</time>
      </trkpt>
      <trkpt lat="56.896982857757" lon="14.853615197581">
        <ele>173.4</ele>
        <time>2020-03-23T18:09:22Z</time>
      </trkpt>
      <trkpt lat="56.896970368726" lon="14.853672445958">
        <ele>173.2</ele>
        <time>2020-03-23T18:09:25Z</time>
      </trkpt>
      <trkpt lat="56.896966932147" lon="14.853759869175">
        <ele>172.8</ele>
        <time>2020-03-23T18:09:29Z</time>
      </trkpt>
      <trkpt lat="56.89697590078" lon="14.853769256903">
        <ele>172.8</ele>
        <time>2020-03-23T18:09:30Z</time>
      </trkpt>
      <trkpt lat="56.896986042879" lon="14.853878640698">
        <ele>172.6</ele>
        <time>2020-03-23T18:09:33Z</time>
      </trkpt>
      <trkpt lat="56.896934075099" lon="14.853977882394">
        <ele>172.8</ele>
        <time>2020-03-23T18:09:42Z</time>
      </trkpt>
      <trkpt lat="56.896872384315" lon="14.854042171567">
        <ele>173.2</ele>
        <time>2020-03-23T18:09:47Z</time>
      </trkpt>
      <trkpt lat="56.896719917554" lon="14.854185334419">
        <ele>173.8</ele>
        <time>2020-03-23T18:09:56Z</time>
      </trkpt>
      <trkpt lat="56.896695190949" lon="14.854205702436">
        <ele>174</ele>
        <time>2020-03-23T18:09:58Z</time>
      </trkpt>
      <trkpt lat="56.896630231224" lon="14.85424140933">
        <ele>173.6</ele>
        <time>2020-03-23T18:10:01Z</time>
      </trkpt>
      <trkpt lat="56.896604079696" lon="14.85427158417">
        <ele>173.4</ele>
        <time>2020-03-23T18:10:03Z</time>
      </trkpt>
      <trkpt lat="56.896569713906" lon="14.854173767397">
        <ele>173.6</ele>
        <time>2020-03-23T18:10:19Z</time>
      </trkpt>
      <trkpt lat="56.896554039753" lon="14.854089529302">
        <ele>173.6</ele>
        <time>2020-03-23T18:10:21Z</time>
      </trkpt>
      <trkpt lat="56.896548759156" lon="14.854062371946">
        <ele>174</ele>
        <time>2020-03-23T18:10:23Z</time>
      </trkpt>
      <trkpt lat="56.896533001184" lon="14.853905881873">
        <ele>174</ele>
        <time>2020-03-23T18:10:41Z</time>
      </trkpt>
      <trkpt lat="56.89653585103" lon="14.853828433117">
        <ele>174</ele>
        <time>2020-03-23T18:10:43Z</time>
      </trkpt>
      <trkpt lat="56.896530570433" lon="14.853452923997">
        <ele>174.4</ele>
        <time>2020-03-23T18:10:51Z</time>
      </trkpt>
      <trkpt lat="56.896503496896" lon="14.853124269698">
        <ele>174.6</ele>
        <time>2020-03-23T18:10:57Z</time>
      </trkpt>
      <trkpt lat="56.89650064705" lon="14.852999966121">
        <ele>174.8</ele>
        <time>2020-03-23T18:10:59Z</time>
      </trkpt>
      <trkpt lat="56.896477680644" lon="14.852651195262">
        <ele>175</ele>
        <time>2020-03-23T18:11:06Z</time>
      </trkpt>
      <trkpt lat="56.896395454205" lon="14.852305693344">
        <ele>174.6</ele>
        <time>2020-03-23T18:11:12Z</time>
      </trkpt>
      <trkpt lat="56.896306689884" lon="14.851932112061">
        <ele>175.2</ele>
        <time>2020-03-23T18:11:18Z</time>
      </trkpt>
      <trkpt lat="56.896222787065" lon="14.851602032839">
        <ele>174.2</ele>
        <time>2020-03-23T18:11:25Z</time>
      </trkpt>
      <trkpt lat="56.896167801801" lon="14.851478818909">
        <ele>174</ele>
        <time>2020-03-23T18:11:28Z</time>
      </trkpt>
      <trkpt lat="56.8961192706" lon="14.851383851982">
        <ele>173.8</ele>
        <time>2020-03-23T18:11:29Z</time>
      </trkpt>
      <trkpt lat="56.895972000617" lon="14.851160474347">
        <ele>172.6</ele>
        <time>2020-03-23T18:11:33Z</time>
      </trkpt>
      <trkpt lat="56.895775025967" lon="14.851040529358">
        <ele>174.2</ele>
        <time>2020-03-23T18:11:38Z</time>
      </trkpt>
      <trkpt lat="56.895714676287" lon="14.851018820237">
        <ele>175.4</ele>
        <time>2020-03-23T18:11:40Z</time>
      </trkpt>
      <trkpt lat="56.895529939211" lon="14.850986885198">
        <ele>174.6</ele>
        <time>2020-03-23T18:11:45Z</time>
      </trkpt>
      <trkpt lat="56.895350147456" lon="14.850944975698">
        <ele>175.2</ele>
        <time>2020-03-23T18:11:52Z</time>
      </trkpt>
      <trkpt lat="56.895175720117" lon="14.850833077333">
        <ele>175.4</ele>
        <time>2020-03-23T18:11:59Z</time>
      </trkpt>
      <trkpt lat="56.894990731584" lon="14.850820588302">
        <ele>176</ele>
        <time>2020-03-23T18:12:06Z</time>
      </trkpt>
      <trkpt lat="56.894841533764" lon="14.850835088989">
        <ele>174.8</ele>
        <time>2020-03-23T18:12:11Z</time>
      </trkpt>
      <trkpt lat="56.894664927131" lon="14.850937851083">
        <ele>175.8</ele>
        <time>2020-03-23T18:12:17Z</time>
      </trkpt>
      <trkpt lat="56.894612624075" lon="14.850976324004">
        <ele>176.4</ele>
        <time>2020-03-23T18:12:19Z</time>
      </trkpt>
      <trkpt lat="56.894438532012" lon="14.85111496063">
        <ele>176.2</ele>
        <time>2020-03-23T18:12:25Z</time>
      </trkpt>
      <trkpt lat="56.894227811046" lon="14.85122895447">
        <ele>176.4</ele>
        <time>2020-03-23T18:12:31Z</time>
      </trkpt>
      <trkpt lat="56.894035027346" lon="14.851331716564">
        <ele>177.4</ele>
        <time>2020-03-23T18:12:36Z</time>
      </trkpt>
      <trkpt lat="56.89387627416" lon="14.851481333479">
        <ele>178.4</ele>
        <time>2020-03-23T18:12:41Z</time>
      </trkpt>
      <trkpt lat="56.893768818202" lon="14.851566912678">
        <ele>177.4</ele>
        <time>2020-03-23T18:12:45Z</time>
      </trkpt>
      <trkpt lat="56.893585589868" lon="14.851739076904">
        <ele>178.2</ele>
        <time>2020-03-23T18:12:51Z</time>
      </trkpt>
      <trkpt lat="56.893542842178" lon="14.85180395281">
        <ele>178.4</ele>
        <time>2020-03-23T18:12:53Z</time>
      </trkpt>
      <trkpt lat="56.893538902685" lon="14.851884670507">
        <ele>178.6</ele>
        <time>2020-03-23T18:12:55Z</time>
      </trkpt>
      <trkpt lat="56.893538986504" lon="14.851923562523">
        <ele>178.8</ele>
        <time>2020-03-23T18:12:56Z</time>
      </trkpt>
      <trkpt lat="56.893512834976" lon="14.852134534946">
        <ele>179.4</ele>
        <time>2020-03-23T18:13:01Z</time>
      </trkpt>
      <trkpt lat="56.893468243268" lon="14.852341064962">
        <ele>179.6</ele>
        <time>2020-03-23T18:13:07Z</time>
      </trkpt>
      <trkpt lat="56.893449803088" lon="14.852580619664">
        <ele>178.8</ele>
        <time>2020-03-23T18:13:17Z</time>
      </trkpt>
      <trkpt lat="56.893475200245" lon="14.852629402322">
        <ele>178.8</ele>
        <time>2020-03-23T18:13:20Z</time>
      </trkpt>
      <trkpt lat="56.893442175559" lon="14.852692015115">
        <ele>179</ele>
        <time>2020-03-23T18:13:24Z</time>
      </trkpt>
      <trkpt lat="56.893445025405" lon="14.852719088652">
        <ele>179</ele>
        <time>2020-03-23T18:13:26Z</time>
      </trkpt>
      <trkpt lat="56.893466147793" lon="14.852903071357">
        <ele>179.6</ele>
        <time>2020-03-23T18:13:34Z</time>
      </trkpt>
      <trkpt lat="56.89348400124" lon="14.853195851124">
        <ele>179.4</ele>
        <time>2020-03-23T18:13:45Z</time>
      </trkpt>
      <trkpt lat="56.893420801714" lon="14.853366255151">
        <ele>179.4</ele>
        <time>2020-03-23T18:13:52Z</time>
      </trkpt>
      <trkpt lat="56.893403786457" lon="14.853384946788">
        <ele>179.4</ele>
        <time>2020-03-23T18:13:54Z</time>
      </trkpt>
      <trkpt lat="56.893381071508" lon="14.853393244869">
        <ele>179.4</ele>
        <time>2020-03-23T18:13:56Z</time>
      </trkpt>
      <trkpt lat="56.893336228343" lon="14.85344093788">
        <ele>179.6</ele>
        <time>2020-03-23T18:14:01Z</time>
      </trkpt>
      <trkpt lat="56.893269676057" lon="14.853452253445">
        <ele>179.6</ele>
        <time>2020-03-23T18:14:05Z</time>
      </trkpt>
      <trkpt lat="56.893205303065" lon="14.853408667565">
        <ele>180.6</ele>
        <time>2020-03-23T18:14:08Z</time>
      </trkpt>
      <trkpt lat="56.893032803563" lon="14.853311353706">
        <ele>180.8</ele>
        <time>2020-03-23T18:14:17Z</time>
      </trkpt>
      <trkpt lat="56.892901962104" lon="14.853249662922">
        <ele>179.2</ele>
        <time>2020-03-23T18:14:23Z</time>
      </trkpt>
      <trkpt lat="56.892741700176" lon="14.853052772091">
        <ele>180</ele>
        <time>2020-03-23T18:14:31Z</time>
      </trkpt>
      <trkpt lat="56.892597028582" lon="14.852913213456">
        <ele>179.6</ele>
        <time>2020-03-23T18:14:38Z</time>
      </trkpt>
      <trkpt lat="56.89252930283" lon="14.852763764179">
        <ele>179.4</ele>
        <time>2020-03-23T18:14:47Z</time>
      </trkpt>
      <trkpt lat="56.8924982898" lon="14.852733254063">
        <ele>179</ele>
        <time>2020-03-23T18:14:50Z</time>
      </trkpt>
      <trkpt lat="56.892444058907" lon="14.852708192182">
        <ele>179</ele>
        <time>2020-03-23T18:14:53Z</time>
      </trkpt>
      <trkpt lat="56.892248592999" lon="14.852775498839">
        <ele>179.2</ele>
        <time>2020-03-23T18:15:00Z</time>
      </trkpt>
      <trkpt lat="56.892065448484" lon="14.852904580099">
        <ele>179.8</ele>
        <time>2020-03-23T18:15:06Z</time>
      </trkpt>
      <trkpt lat="56.891900911787" lon="14.853010443496">
        <ele>180.4</ele>
        <time>2020-03-23T18:15:12Z</time>
      </trkpt>
      <trkpt lat="56.891768561586" lon="14.853073559203">
        <ele>181.4</ele>
        <time>2020-03-23T18:15:17Z</time>
      </trkpt>
      <trkpt lat="56.891573179497" lon="14.853104656052">
        <ele>181.6</ele>
        <time>2020-03-23T18:15:23Z</time>
      </trkpt>
      <trkpt lat="56.891395986131" lon="14.853034080454">
        <ele>181.4</ele>
        <time>2020-03-23T18:15:29Z</time>
      </trkpt>
      <trkpt lat="56.891378551779" lon="14.852671311822">
        <ele>182</ele>
        <time>2020-03-23T18:15:36Z</time>
      </trkpt>
      <trkpt lat="56.891419371632" lon="14.852312063588">
        <ele>181</ele>
        <time>2020-03-23T18:15:42Z</time>
      </trkpt>
      <trkpt lat="56.891452983051" lon="14.852174097514">
        <ele>180.4</ele>
        <time>2020-03-23T18:15:45Z</time>
      </trkpt>
      <trkpt lat="56.891493132352" lon="14.852052979059">
        <ele>179.2</ele>
        <time>2020-03-23T18:15:48Z</time>
      </trkpt>
      <trkpt lat="56.891562953579" lon="14.851794565082">
        <ele>178</ele>
        <time>2020-03-23T18:15:54Z</time>
      </trkpt>
      <trkpt lat="56.891566976891" lon="14.851731700832">
        <ele>178</ele>
        <time>2020-03-23T18:15:55Z</time>
      </trkpt>
      <trkpt lat="56.891584327424" lon="14.851452835019">
        <ele>179.2</ele>
        <time>2020-03-23T18:15:59Z</time>
      </trkpt>
      <trkpt lat="56.891589859478" lon="14.851246724098">
        <ele>180.4</ele>
        <time>2020-03-23T18:16:02Z</time>
      </trkpt>
      <trkpt lat="56.891616597739" lon="14.85085176897">
        <ele>181.4</ele>
        <time>2020-03-23T18:16:08Z</time>
      </trkpt>
      <trkpt lat="56.891597319369" lon="14.850529484915">
        <ele>180</ele>
        <time>2020-03-23T18:16:13Z</time>
      </trkpt>
      <trkpt lat="56.891539819535" lon="14.850210050706">
        <ele>179.8</ele>
        <time>2020-03-23T18:16:19Z</time>
      </trkpt>
      <trkpt lat="56.891411576465" lon="14.849902602614">
        <ele>180.4</ele>
        <time>2020-03-23T18:16:24Z</time>
      </trkpt>
      <trkpt lat="56.891268245975" lon="14.849661706808">
        <ele>179.4</ele>
        <time>2020-03-23T18:16:30Z</time>
      </trkpt>
      <trkpt lat="56.891101446165" lon="14.849456350258">
        <ele>180.4</ele>
        <time>2020-03-23T18:16:37Z</time>
      </trkpt>
      <trkpt lat="56.890939591676" lon="14.84924328236">
        <ele>180.8</ele>
        <time>2020-03-23T18:16:44Z</time>
      </trkpt>
      <trkpt lat="56.890756195704" lon="14.849048403185">
        <ele>179.4</ele>
        <time>2020-03-23T18:16:50Z</time>
      </trkpt>
      <trkpt lat="56.890721075543" lon="14.84901110373">
        <ele>179</ele>
        <time>2020-03-23T18:16:51Z</time>
      </trkpt>
      <trkpt lat="56.890561987081" lon="14.848822762437">
        <ele>179.6</ele>
        <time>2020-03-23T18:16:56Z</time>
      </trkpt>
      <trkpt lat="56.890414633279" lon="14.848604749218">
        <ele>179.8</ele>
        <time>2020-03-23T18:17:01Z</time>
      </trkpt>
      <trkpt lat="56.890282199259" lon="14.84837827028">
        <ele>179</ele>
        <time>2020-03-23T18:17:06Z</time>
      </trkpt>
      <trkpt lat="56.890233248963" lon="14.848253296151">
        <ele>179.4</ele>
        <time>2020-03-23T18:17:09Z</time>
      </trkpt>
      <trkpt lat="56.890309943348" lon="14.847967054266">
        <ele>177.8</ele>
        <time>2020-03-23T18:17:18Z</time>
      </trkpt>
      <trkpt lat="56.890317151782" lon="14.847929251897">
        <ele>177.6</ele>
        <time>2020-03-23T18:17:19Z</time>
      </trkpt>
      <trkpt lat="56.890347661898" lon="14.847872338796">
        <ele>176.8</ele>
        <time>2020-03-23T18:17:21Z</time>
      </trkpt>
      <trkpt lat="56.890517479192" lon="14.847721296958">
        <ele>176.6</ele>
        <time>2020-03-23T18:17:29Z</time>
      </trkpt>
      <trkpt lat="56.890570285162" lon="14.84768592534">
        <ele>176.4</ele>
        <time>2020-03-23T18:17:33Z</time>
      </trkpt>
      <trkpt lat="56.890614793051" lon="14.847625240384">
        <ele>176.4</ele>
        <time>2020-03-23T18:17:36Z</time>
      </trkpt>
      <trkpt lat="56.890654858533" lon="14.847591293689">
        <ele>176.4</ele>
        <time>2020-03-23T18:17:39Z</time>
      </trkpt>
      <trkpt lat="56.890656954008" lon="14.847450058674">
        <ele>177.2</ele>
        <time>2020-03-23T18:17:43Z</time>
      </trkpt>
      <trkpt lat="56.890709089426" lon="14.847382584379">
        <ele>177.8</ele>
        <time>2020-03-23T18:17:48Z</time>
      </trkpt>
      <trkpt lat="56.890741359741" lon="14.847302621053">
        <ele>177.6</ele>
        <time>2020-03-23T18:17:52Z</time>
      </trkpt>
      <trkpt lat="56.890750160736" lon="14.84723749369">
        <ele>177.4</ele>
        <time>2020-03-23T18:17:56Z</time>
      </trkpt>
      <trkpt lat="56.890742868483" lon="14.847202038253">
        <ele>177.2</ele>
        <time>2020-03-23T18:17:58Z</time>
      </trkpt>
      <trkpt lat="56.890759464645" lon="14.847140347469">
        <ele>177</ele>
        <time>2020-03-23T18:18:01Z</time>
      </trkpt>
      <trkpt lat="56.890785280897" lon="14.847114363579">
        <ele>176.2</ele>
        <time>2020-03-23T18:18:05Z</time>
      </trkpt>
      <trkpt lat="56.890803134344" lon="14.847067844034">
        <ele>175.8</ele>
        <time>2020-03-23T18:18:09Z</time>
      </trkpt>
      <trkpt lat="56.890796931738" lon="14.847045464361">
        <ele>175.8</ele>
        <time>2020-03-23T18:18:10Z</time>
      </trkpt>
      <trkpt lat="56.890808834036" lon="14.847021995041">
        <ele>175.6</ele>
        <time>2020-03-23T18:18:12Z</time>
      </trkpt>
      <trkpt lat="56.890817215936" lon="14.846954101651">
        <ele>175.2</ele>
        <time>2020-03-23T18:18:15Z</time>
      </trkpt>
      <trkpt lat="56.890829872605" lon="14.846901128043">
        <ele>175</ele>
        <time>2020-03-23T18:18:18Z</time>
      </trkpt>
      <trkpt lat="56.890871530648" lon="14.84688126294">
        <ele>174.6</ele>
        <time>2020-03-23T18:18:22Z</time>
      </trkpt>
      <trkpt lat="56.890881169833" lon="14.846881933492">
        <ele>174.2</ele>
        <time>2020-03-23T18:18:23Z</time>
      </trkpt>
      <trkpt lat="56.890893072131" lon="14.8468846157">
        <ele>174</ele>
        <time>2020-03-23T18:18:24Z</time>
      </trkpt>
      <trkpt lat="56.890919726573" lon="14.846886543537">
        <ele>173.8</ele>
        <time>2020-03-23T18:18:26Z</time>
      </trkpt>
      <trkpt lat="56.890950069051" lon="14.846858967086">
        <ele>173.6</ele>
        <time>2020-03-23T18:18:30Z</time>
      </trkpt>
      <trkpt lat="56.890964905014" lon="14.846799371777">
        <ele>173.4</ele>
        <time>2020-03-23T18:18:32Z</time>
      </trkpt>
      <trkpt lat="56.89093758002" lon="14.846688143964">
        <ele>173.2</ele>
        <time>2020-03-23T18:18:35Z</time>
      </trkpt>
      <trkpt lat="56.890873207028" lon="14.846653023803">
        <ele>173.4</ele>
        <time>2020-03-23T18:18:39Z</time>
      </trkpt>
      <trkpt lat="56.890824759646" lon="14.846645060998">
        <ele>174</ele>
        <time>2020-03-23T18:18:43Z</time>
      </trkpt>
      <trkpt lat="56.890894999968" lon="14.8466583044">
        <ele>173.6</ele>
        <time>2020-03-23T18:18:51Z</time>
      </trkpt>
      <trkpt lat="56.891005724867" lon="14.846555039392">
        <ele>172.4</ele>
        <time>2020-03-23T18:18:55Z</time>
      </trkpt>
      <trkpt lat="56.891159365094" lon="14.846305929324">
        <ele>172</ele>
        <time>2020-03-23T18:19:01Z</time>
      </trkpt>
      <trkpt lat="56.891263216835" lon="14.845981214518">
        <ele>172.2</ele>
        <time>2020-03-23T18:19:08Z</time>
      </trkpt>
      <trkpt lat="56.891428424084" lon="14.845800584573">
        <ele>172.4</ele>
        <time>2020-03-23T18:19:16Z</time>
      </trkpt>
      <trkpt lat="56.891578208637" lon="14.845568238305">
        <ele>173</ele>
        <time>2020-03-23T18:19:23Z</time>
      </trkpt>
      <trkpt lat="56.891629170589" lon="14.845362881755">
        <ele>172.4</ele>
        <time>2020-03-23T18:19:28Z</time>
      </trkpt>
      <trkpt lat="56.891623638535" lon="14.845230531554">
        <ele>171.2</ele>
        <time>2020-03-23T18:19:31Z</time>
      </trkpt>
      <trkpt lat="56.891537891698" lon="14.844977481993">
        <ele>172.6</ele>
        <time>2020-03-23T18:19:36Z</time>
      </trkpt>
      <trkpt lat="56.891510482885" lon="14.844884778179">
        <ele>174.2</ele>
        <time>2020-03-23T18:19:38Z</time>
      </trkpt>
      <trkpt lat="56.891474524534" lon="14.844741028594">
        <ele>175.4</ele>
        <time>2020-03-23T18:19:41Z</time>
      </trkpt>
      <trkpt lat="56.891454491793" lon="14.844352695167">
        <ele>174.6</ele>
        <time>2020-03-23T18:19:48Z</time>
      </trkpt>
      <trkpt lat="56.89144133221" lon="14.844215651102">
        <ele>174.4</ele>
        <time>2020-03-23T18:19:50Z</time>
      </trkpt>
      <trkpt lat="56.891434291414" lon="14.843960757523">
        <ele>173.2</ele>
        <time>2020-03-23T18:19:54Z</time>
      </trkpt>
      <trkpt lat="56.891423562582" lon="14.843847685692">
        <ele>172.2</ele>
        <time>2020-03-23T18:19:56Z</time>
      </trkpt>
      <trkpt lat="56.891422724392" lon="14.843573597562">
        <ele>171.2</ele>
        <time>2020-03-23T18:20:01Z</time>
      </trkpt>
      <trkpt lat="56.891375534295" lon="14.843226838359">
        <ele>171.2</ele>
        <time>2020-03-23T18:20:07Z</time>
      </trkpt>
      <trkpt lat="56.891263887387" lon="14.842929280909">
        <ele>170</ele>
        <time>2020-03-23T18:20:14Z</time>
      </trkpt>
      <trkpt lat="56.891167160261" lon="14.842638596617">
        <ele>170.6</ele>
        <time>2020-03-23T18:20:21Z</time>
      </trkpt>
      <trkpt lat="56.891114270472" lon="14.842549580839">
        <ele>171.2</ele>
        <time>2020-03-23T18:20:23Z</time>
      </trkpt>
      <trkpt lat="56.891069008212" lon="14.84243885594">
        <ele>172.4</ele>
        <time>2020-03-23T18:20:26Z</time>
      </trkpt>
      <trkpt lat="56.890945794282" lon="14.842212377002">
        <ele>173.6</ele>
        <time>2020-03-23T18:20:30Z</time>
      </trkpt>
      <trkpt lat="56.890822412714" lon="14.842009367384">
        <ele>174.6</ele>
        <time>2020-03-23T18:20:35Z</time>
      </trkpt>
      <trkpt lat="56.890699701698" lon="14.841768387759">
        <ele>175.2</ele>
        <time>2020-03-23T18:20:41Z</time>
      </trkpt>
      <trkpt lat="56.890552431715" lon="14.841526402306">
        <ele>173.4</ele>
        <time>2020-03-23T18:20:49Z</time>
      </trkpt>
      <trkpt lat="56.890482861945" lon="14.841466974635">
        <ele>172.2</ele>
        <time>2020-03-23T18:20:54Z</time>
      </trkpt>
      <trkpt lat="56.890320839818" lon="14.841322973593">
        <ele>172.2</ele>
        <time>2020-03-23T18:21:04Z</time>
      </trkpt>
      <trkpt lat="56.890320839818" lon="14.841223899535">
        <ele>173.2</ele>
        <time>2020-03-23T18:21:08Z</time>
      </trkpt>
      <trkpt lat="56.890324444035" lon="14.841208979753">
        <ele>173.2</ele>
        <time>2020-03-23T18:21:09Z</time>
      </trkpt>
      <trkpt lat="56.890333664125" lon="14.841169920099">
        <ele>173.4</ele>
        <time>2020-03-23T18:21:11Z</time>
      </trkpt>
      <trkpt lat="56.890343806224" lon="14.841108816048">
        <ele>173.4</ele>
        <time>2020-03-23T18:21:13Z</time>
      </trkpt>
      <trkpt lat="56.890347410441" lon="14.841038408088">
        <ele>173.6</ele>
        <time>2020-03-23T18:21:15Z</time>
      </trkpt>
      <trkpt lat="56.89035587616" lon="14.84092592299">
        <ele>174.4</ele>
        <time>2020-03-23T18:21:18Z</time>
      </trkpt>
      <trkpt lat="56.890374148702" lon="14.840772701858">
        <ele>175.2</ele>
        <time>2020-03-23T18:21:22Z</time>
      </trkpt>
      <trkpt lat="56.890382949697" lon="14.840753339669">
        <ele>175.4</ele>
        <time>2020-03-23T18:21:23Z</time>
      </trkpt>
      <trkpt lat="56.890397282746" lon="14.840687541754">
        <ele>175.6</ele>
        <time>2020-03-23T18:21:25Z</time>
      </trkpt>
      <trkpt lat="56.890395774004" lon="14.840512946777">
        <ele>176.2</ele>
        <time>2020-03-23T18:21:31Z</time>
      </trkpt>
      <trkpt lat="56.890391666873" lon="14.840465086128">
        <ele>176</ele>
        <time>2020-03-23T18:21:33Z</time>
      </trkpt>
      <trkpt lat="56.890384877534" lon="14.840396522186">
        <ele>176.2</ele>
        <time>2020-03-23T18:21:35Z</time>
      </trkpt>
      <trkpt lat="56.890489818922" lon="14.840117824011">
        <ele>176.4</ele>
        <time>2020-03-23T18:21:43Z</time>
      </trkpt>
      <trkpt lat="56.890498871374" lon="14.84008270385">
        <ele>176.4</ele>
        <time>2020-03-23T18:21:44Z</time>
      </trkpt>
      <trkpt lat="56.89050507398" lon="14.839948761088">
        <ele>177.6</ele>
        <time>2020-03-23T18:21:48Z</time>
      </trkpt>
      <trkpt lat="56.89050172122" lon="14.839880951517">
        <ele>178</ele>
        <time>2020-03-23T18:21:50Z</time>
      </trkpt>
      <trkpt lat="56.890505493075" lon="14.839780201079">
        <ele>178.6</ele>
        <time>2020-03-23T18:21:54Z</time>
      </trkpt>
      <trkpt lat="56.890514545527" lon="14.839673583311">
        <ele>179.2</ele>
        <time>2020-03-23T18:21:57Z</time>
      </trkpt>
      <trkpt lat="56.890538769218" lon="14.839619855332">
        <ele>179.6</ele>
        <time>2020-03-23T18:21:59Z</time>
      </trkpt>
      <trkpt lat="56.890580175804" lon="14.83952195474">
        <ele>180.2</ele>
        <time>2020-03-23T18:22:03Z</time>
      </trkpt>
      <trkpt lat="56.890682686441" lon="14.839309473575">
        <ele>179.4</ele>
        <time>2020-03-23T18:22:10Z</time>
      </trkpt>
      <trkpt lat="56.890670029772" lon="14.839188858034">
        <ele>178.2</ele>
        <time>2020-03-23T18:22:13Z</time>
      </trkpt>
      <trkpt lat="56.890654020343" lon="14.839161868316">
        <ele>178</ele>
        <time>2020-03-23T18:22:14Z</time>
      </trkpt>
      <trkpt lat="56.890556622665" lon="14.83884302084">
        <ele>177.2</ele>
        <time>2020-03-23T18:22:21Z</time>
      </trkpt>
      <trkpt lat="56.890545390919" lon="14.838791723612">
        <ele>177</ele>
        <time>2020-03-23T18:22:22Z</time>
      </trkpt>
      <trkpt lat="56.890528124205" lon="14.838641100869">
        <ele>176</ele>
        <time>2020-03-23T18:22:25Z</time>
      </trkpt>
      <trkpt lat="56.890469367086" lon="14.838325941429">
        <ele>176</ele>
        <time>2020-03-23T18:22:31Z</time>
      </trkpt>
      <trkpt lat="56.890379261661" lon="14.837996281302">
        <ele>176.2</ele>
        <time>2020-03-23T18:22:36Z</time>
      </trkpt>
      <trkpt lat="56.890276415748" lon="14.837720265335">
        <ele>176.8</ele>
        <time>2020-03-23T18:22:43Z</time>
      </trkpt>
      <trkpt lat="56.89009603726" lon="14.837543491064">
        <ele>177</ele>
        <time>2020-03-23T18:22:53Z</time>
      </trkpt>
      <trkpt lat="56.889987743112" lon="14.837390521389">
        <ele>178</ele>
        <time>2020-03-23T18:22:59Z</time>
      </trkpt>
      <trkpt lat="56.889966788362" lon="14.837369818096">
        <ele>178.2</ele>
        <time>2020-03-23T18:23:00Z</time>
      </trkpt>
      <trkpt lat="56.889944073413" lon="14.837337296324">
        <ele>178.6</ele>
        <time>2020-03-23T18:23:02Z</time>
      </trkpt>
      <trkpt lat="56.889931332925" lon="14.837310558063">
        <ele>178.8</ele>
        <time>2020-03-23T18:23:04Z</time>
      </trkpt>
      <trkpt lat="56.889911886917" lon="14.837273761522">
        <ele>178.8</ele>
        <time>2020-03-23T18:23:06Z</time>
      </trkpt>
      <trkpt lat="56.889889758701" lon="14.837198072965">
        <ele>178.6</ele>
        <time>2020-03-23T18:23:09Z</time>
      </trkpt>
      <trkpt lat="56.889742572537" lon="14.836967319258">
        <ele>179.2</ele>
        <time>2020-03-23T18:23:16Z</time>
      </trkpt>
      <trkpt lat="56.8896735895" lon="14.836899677325">
        <ele>180.4</ele>
        <time>2020-03-23T18:23:19Z</time>
      </trkpt>
      <trkpt lat="56.889581472419" lon="14.836765315468">
        <ele>181.4</ele>
        <time>2020-03-23T18:23:24Z</time>
      </trkpt>
      <trkpt lat="56.889558841289" lon="14.836721142855">
        <ele>181.6</ele>
        <time>2020-03-23T18:23:27Z</time>
      </trkpt>
      <trkpt lat="56.889511483554" lon="14.836664397392">
        <ele>182</ele>
        <time>2020-03-23T18:23:30Z</time>
      </trkpt>
      <trkpt lat="56.889473429728" lon="14.83663187562">
        <ele>182.4</ele>
        <time>2020-03-23T18:23:32Z</time>
      </trkpt>
      <trkpt lat="56.889400674836" lon="14.836567083533">
        <ele>183.8</ele>
        <time>2020-03-23T18:23:36Z</time>
      </trkpt>
      <trkpt lat="56.889348036504" lon="14.836474044443">
        <ele>184.8</ele>
        <time>2020-03-23T18:23:42Z</time>
      </trkpt>
      <trkpt lat="56.889325573012" lon="14.836396930963">
        <ele>185</ele>
        <time>2020-03-23T18:23:46Z</time>
      </trkpt>
      <trkpt lat="56.889325489193" lon="14.836229376782">
        <ele>185.2</ele>
        <time>2020-03-23T18:23:53Z</time>
      </trkpt>
      <trkpt lat="56.889292632145" lon="14.836072886709">
        <ele>185.2</ele>
        <time>2020-03-23T18:23:57Z</time>
      </trkpt>
      <trkpt lat="56.889297577466" lon="14.835925616726">
        <ele>185.4</ele>
        <time>2020-03-23T18:24:02Z</time>
      </trkpt>
      <trkpt lat="56.88931065323" lon="14.8358037439">
        <ele>184.6</ele>
        <time>2020-03-23T18:24:07Z</time>
      </trkpt>
      <trkpt lat="56.889303612434" lon="14.835671728975">
        <ele>184.4</ele>
        <time>2020-03-23T18:24:10Z</time>
      </trkpt>
      <trkpt lat="56.889285004616" lon="14.835476933619">
        <ele>183.8</ele>
        <time>2020-03-23T18:24:15Z</time>
      </trkpt>
      <trkpt lat="56.889272347947" lon="14.835425301115">
        <ele>183.8</ele>
        <time>2020-03-23T18:24:16Z</time>
      </trkpt>
      <trkpt lat="56.889250135912" lon="14.835409878419">
        <ele>182.8</ele>
        <time>2020-03-23T18:24:19Z</time>
      </trkpt>
      <trkpt lat="56.889248375713" lon="14.835381799054">
        <ele>181.8</ele>
        <time>2020-03-23T18:24:23Z</time>
      </trkpt>
      <trkpt lat="56.889224906393" lon="14.835368807109">
        <ele>181.6</ele>
        <time>2020-03-23T18:24:24Z</time>
      </trkpt>
      <trkpt lat="56.889133962778" lon="14.835317845157">
        <ele>181.2</ele>
        <time>2020-03-23T18:24:28Z</time>
      </trkpt>
      <trkpt lat="56.889115857874" lon="14.835286496851">
        <ele>181</ele>
        <time>2020-03-23T18:24:29Z</time>
      </trkpt>
      <trkpt lat="56.88907093089" lon="14.835149788062">
        <ele>180.6</ele>
        <time>2020-03-23T18:24:32Z</time>
      </trkpt>
      <trkpt lat="56.888909579315" lon="14.835008469228">
        <ele>181</ele>
        <time>2020-03-23T18:24:40Z</time>
      </trkpt>
      <trkpt lat="56.888848139988" lon="14.835041913009">
        <ele>181.8</ele>
        <time>2020-03-23T18:24:43Z</time>
      </trkpt>
      <trkpt lat="56.888787455032" lon="14.835083319595">
        <ele>182.6</ele>
        <time>2020-03-23T18:24:45Z</time>
      </trkpt>
      <trkpt lat="56.888732469768" lon="14.835049875814">
        <ele>182.8</ele>
        <time>2020-03-23T18:24:47Z</time>
      </trkpt>
      <trkpt lat="56.888689302983" lon="14.834935965793">
        <ele>181.8</ele>
        <time>2020-03-23T18:24:50Z</time>
      </trkpt>
      <trkpt lat="56.888661307437" lon="14.83484401635">
        <ele>180.6</ele>
        <time>2020-03-23T18:24:53Z</time>
      </trkpt>
      <trkpt lat="56.888586121794" lon="14.834811829854">
        <ele>179.4</ele>
        <time>2020-03-23T18:24:57Z</time>
      </trkpt>
      <trkpt lat="56.888529292512" lon="14.834768327793">
        <ele>178.2</ele>
        <time>2020-03-23T18:25:00Z</time>
      </trkpt>
      <trkpt lat="56.88849425617" lon="14.83468476025">
        <ele>176.8</ele>
        <time>2020-03-23T18:25:04Z</time>
      </trkpt>
      <trkpt lat="56.888479671664" lon="14.834656094152">
        <ele>177</ele>
        <time>2020-03-23T18:25:05Z</time>
      </trkpt>
      <trkpt lat="56.888401468537" lon="14.83455064985">
        <ele>175</ele>
        <time>2020-03-23T18:25:09Z</time>
      </trkpt>
      <trkpt lat="56.888374814095" lon="14.834525168874">
        <ele>173.6</ele>
        <time>2020-03-23T18:25:11Z</time>
      </trkpt>
      <trkpt lat="56.888237853849" lon="14.834457694579">
        <ele>172.6</ele>
        <time>2020-03-23T18:25:17Z</time>
      </trkpt>
      <trkpt lat="56.88819669872" lon="14.83447269818">
        <ele>172.4</ele>
        <time>2020-03-23T18:25:18Z</time>
      </trkpt>
      <trkpt lat="56.888024785951" lon="14.834699680032">
        <ele>171.8</ele>
        <time>2020-03-23T18:25:24Z</time>
      </trkpt>
      <trkpt lat="56.887860249254" lon="14.834856505381">
        <ele>172</ele>
        <time>2020-03-23T18:25:30Z</time>
      </trkpt>
      <trkpt lat="56.88778430924" lon="14.834846614739">
        <ele>172</ele>
        <time>2020-03-23T18:25:36Z</time>
      </trkpt>
      <trkpt lat="56.887767210164" lon="14.834858433218">
        <ele>172</ele>
        <time>2020-03-23T18:25:38Z</time>
      </trkpt>
      <trkpt lat="56.887723791922" lon="14.834877460131">
        <ele>172.6</ele>
        <time>2020-03-23T18:25:41Z</time>
      </trkpt>
      <trkpt lat="56.887594123929" lon="14.834753994744">
        <ele>171.4</ele>
        <time>2020-03-23T18:25:49Z</time>
      </trkpt>
      <trkpt lat="56.887562524166" lon="14.834673947599">
        <ele>170.2</ele>
        <time>2020-03-23T18:25:52Z</time>
      </trkpt>
      <trkpt lat="56.887555399551" lon="14.834634971764">
        <ele>169.2</ele>
        <time>2020-03-23T18:25:54Z</time>
      </trkpt>
      <trkpt lat="56.887540898864" lon="14.83458753021">
        <ele>168.8</ele>
        <time>2020-03-23T18:25:56Z</time>
      </trkpt>
      <trkpt lat="56.887376865081" lon="14.834367421516">
        <ele>168.2</ele>
        <time>2020-03-23T18:26:06Z</time>
      </trkpt>
      <trkpt lat="56.887366387706" lon="14.83433188226">
        <ele>168.2</ele>
        <time>2020-03-23T18:26:07Z</time>
      </trkpt>
      <trkpt lat="56.887269325304" lon="14.834054692827">
        <ele>168.8</ele>
        <time>2020-03-23T18:26:15Z</time>
      </trkpt>
      <trkpt lat="56.887264715259" lon="14.834027284014">
        <ele>169.4</ele>
        <time>2020-03-23T18:26:17Z</time>
      </trkpt>
      <trkpt lat="56.887233534591" lon="14.833955954045">
        <ele>170.6</ele>
        <time>2020-03-23T18:26:23Z</time>
      </trkpt>
      <trkpt lat="56.88716907778" lon="14.833897951297">
        <ele>171.6</ele>
        <time>2020-03-23T18:26:26Z</time>
      </trkpt>
      <trkpt lat="56.887144518813" lon="14.833894095623">
        <ele>171.8</ele>
        <time>2020-03-23T18:26:27Z</time>
      </trkpt>
      <trkpt lat="56.887116942362" lon="14.833894263261">
        <ele>172.2</ele>
        <time>2020-03-23T18:26:28Z</time>
      </trkpt>
      <trkpt lat="56.887003702893" lon="14.833916642934">
        <ele>172.2</ele>
        <time>2020-03-23T18:26:34Z</time>
      </trkpt>
      <trkpt lat="56.886982748143" lon="14.833916056201">
        <ele>171.4</ele>
        <time>2020-03-23T18:26:37Z</time>
      </trkpt>
      <trkpt lat="56.886950645466" lon="14.833900884962">
        <ele>171.2</ele>
        <time>2020-03-23T18:26:40Z</time>
      </trkpt>
      <trkpt lat="56.886918375151" lon="14.833873308511">
        <ele>171</ele>
        <time>2020-03-23T18:26:43Z</time>
      </trkpt>
      <trkpt lat="56.886934468399" lon="14.833789238054">
        <ele>170.8</ele>
        <time>2020-03-23T18:26:46Z</time>
      </trkpt>
      <trkpt lat="56.886954668778" lon="14.833639118225">
        <ele>170</ele>
        <time>2020-03-23T18:26:52Z</time>
      </trkpt>
      <trkpt lat="56.886951567475" lon="14.833616570914">
        <ele>169.8</ele>
        <time>2020-03-23T18:26:54Z</time>
      </trkpt>
      <trkpt lat="56.88690840069" lon="14.833540714719">
        <ele>169.8</ele>
        <time>2020-03-23T18:26:57Z</time>
      </trkpt>
      <trkpt lat="56.886852493417" lon="14.833500565418">
        <ele>169.6</ele>
        <time>2020-03-23T18:26:59Z</time>
      </trkpt>
      <trkpt lat="56.886798933076" lon="14.833380955705">
        <ele>169.6</ele>
        <time>2020-03-23T18:27:02Z</time>
      </trkpt>
      <trkpt lat="56.88685810929" lon="14.833143999392">
        <ele>168.8</ele>
        <time>2020-03-23T18:27:10Z</time>
      </trkpt>
      <trkpt lat="56.886885601922" lon="14.83310058115">
        <ele>168.6</ele>
        <time>2020-03-23T18:27:12Z</time>
      </trkpt>
      <trkpt lat="56.886885015189" lon="14.833067556464">
        <ele>168.6</ele>
        <time>2020-03-23T18:27:14Z</time>
      </trkpt>
      <trkpt lat="56.886827012441" lon="14.83289690098">
        <ele>168.8</ele>
        <time>2020-03-23T18:27:19Z</time>
      </trkpt>
      <trkpt lat="56.886778648878" lon="14.832811154143">
        <ele>169</ele>
        <time>2020-03-23T18:27:22Z</time>
      </trkpt>
      <trkpt lat="56.886767249494" lon="14.83277117248">
        <ele>168.8</ele>
        <time>2020-03-23T18:27:25Z</time>
      </trkpt>
      <trkpt lat="56.886733135161" lon="14.832682072883">
        <ele>168.4</ele>
        <time>2020-03-23T18:27:30Z</time>
      </trkpt>
      <trkpt lat="56.886715030257" lon="14.832565983568">
        <ele>168.4</ele>
        <time>2020-03-23T18:27:34Z</time>
      </trkpt>
      <trkpt lat="56.886705055796" lon="14.83252893557">
        <ele>168.2</ele>
        <time>2020-03-23T18:27:36Z</time>
      </trkpt>
      <trkpt lat="56.886750988608" lon="14.832519296385">
        <ele>168</ele>
        <time>2020-03-23T18:27:41Z</time>
      </trkpt>
      <trkpt lat="56.886769009693" lon="14.832536646918">
        <ele>168.6</ele>
        <time>2020-03-23T18:27:43Z</time>
      </trkpt>
      <trkpt lat="56.886783845656" lon="14.832545531732">
        <ele>169.4</ele>
        <time>2020-03-23T18:27:45Z</time>
      </trkpt>
      <trkpt lat="56.886794825945" lon="14.832545447913">
        <ele>169.8</ele>
        <time>2020-03-23T18:27:46Z</time>
      </trkpt>
      <trkpt lat="56.886907227224" lon="14.832490462649">
        <ele>170.2</ele>
        <time>2020-03-23T18:27:53Z</time>
      </trkpt>
      <trkpt lat="56.887008815852" lon="14.832349982005">
        <ele>168.8</ele>
        <time>2020-03-23T18:28:02Z</time>
      </trkpt>
      <trkpt lat="56.887101352028" lon="14.83227747857">
        <ele>167.6</ele>
        <time>2020-03-23T18:28:08Z</time>
      </trkpt>
      <trkpt lat="56.887186512132" lon="14.832067679613">
        <ele>166.2</ele>
        <time>2020-03-23T18:28:12Z</time>
      </trkpt>
      <trkpt lat="56.887231690573" lon="14.831898951966">
        <ele>165</ele>
        <time>2020-03-23T18:28:15Z</time>
      </trkpt>
      <trkpt lat="56.887323891473" lon="14.831610866063">
        <ele>163.6</ele>
        <time>2020-03-23T18:28:20Z</time>
      </trkpt>
      <trkpt lat="56.887368986095" lon="14.831539116999">
        <ele>162.2</ele>
        <time>2020-03-23T18:28:22Z</time>
      </trkpt>
      <trkpt lat="56.887432604716" lon="14.831493016549">
        <ele>161</ele>
        <time>2020-03-23T18:28:24Z</time>
      </trkpt>
      <trkpt lat="56.887634105592" lon="14.831403497857">
        <ele>160.6</ele>
        <time>2020-03-23T18:28:31Z</time>
      </trkpt>
      <trkpt lat="56.887810796044" lon="14.831352452086">
        <ele>160.8</ele>
        <time>2020-03-23T18:28:38Z</time>
      </trkpt>
      <trkpt lat="56.887998718242" lon="14.83126494505">
        <ele>160.4</ele>
        <time>2020-03-23T18:28:44Z</time>
      </trkpt>
      <trkpt lat="56.888170128097" lon="14.831162853508">
        <ele>160.4</ele>
        <time>2020-03-23T18:28:48Z</time>
      </trkpt>
      <trkpt lat="56.888348494929" lon="14.830996891888">
        <ele>161</ele>
        <time>2020-03-23T18:28:53Z</time>
      </trkpt>
      <trkpt lat="56.888419992536" lon="14.830649629771">
        <ele>161.4</ele>
        <time>2020-03-23T18:29:01Z</time>
      </trkpt>
      <trkpt lat="56.888568519804" lon="14.830670416883">
        <ele>161.8</ele>
        <time>2020-03-23T18:29:07Z</time>
      </trkpt>
      <trkpt lat="56.888732972682" lon="14.830686091036">
        <ele>162.2</ele>
        <time>2020-03-23T18:29:15Z</time>
      </trkpt>
      <trkpt lat="56.888807906868" lon="14.830692293642">
        <ele>163</ele>
        <time>2020-03-23T18:29:20Z</time>
      </trkpt>
      <trkpt lat="56.888822491374" lon="14.830675278385">
        <ele>163.2</ele>
        <time>2020-03-23T18:29:22Z</time>
      </trkpt>
      <trkpt lat="56.888847301798" lon="14.830680391344">
        <ele>163</ele>
        <time>2020-03-23T18:29:24Z</time>
      </trkpt>
      <trkpt lat="56.888951824091" lon="14.830731772391">
        <ele>162.2</ele>
        <time>2020-03-23T18:29:27Z</time>
      </trkpt>
      <trkpt lat="56.889087443233" lon="14.83066228644">
        <ele>162.8</ele>
        <time>2020-03-23T18:29:33Z</time>
      </trkpt>
      <trkpt lat="56.889122228118" lon="14.83064719902">
        <ele>163.2</ele>
        <time>2020-03-23T18:29:35Z</time>
      </trkpt>
      <trkpt lat="56.889312581067" lon="14.83059523124">
        <ele>163.2</ele>
        <time>2020-03-23T18:29:41Z</time>
      </trkpt>
      <trkpt lat="56.889527157707" lon="14.83049716301">
        <ele>163.2</ele>
        <time>2020-03-23T18:29:52Z</time>
      </trkpt>
      <trkpt lat="56.889669482369" lon="14.830474364242">
        <ele>163.2</ele>
        <time>2020-03-23T18:29:58Z</time>
      </trkpt>
      <trkpt lat="56.889726898384" lon="14.8304812374">
        <ele>163</ele>
        <time>2020-03-23T18:30:00Z</time>
      </trkpt>
      <trkpt lat="56.889777776517" lon="14.830469586559">
        <ele>163.2</ele>
        <time>2020-03-23T18:30:03Z</time>
      </trkpt>
      <trkpt lat="56.889831672134" lon="14.830441423375">
        <ele>163.2</ele>
        <time>2020-03-23T18:30:06Z</time>
      </trkpt>
      <trkpt lat="56.889895290755" lon="14.830478471373">
        <ele>164.2</ele>
        <time>2020-03-23T18:30:18Z</time>
      </trkpt>
      <trkpt lat="56.889887579407" lon="14.830495402811">
        <ele>164.4</ele>
        <time>2020-03-23T18:30:19Z</time>
      </trkpt>
      <trkpt lat="56.889847430106" lon="14.830574192671">
        <ele>165.4</ele>
        <time>2020-03-23T18:30:22Z</time>
      </trkpt>
      <trkpt lat="56.889852291608" lon="14.830668740503">
        <ele>166.8</ele>
        <time>2020-03-23T18:30:25Z</time>
      </trkpt>
      <trkpt lat="56.889854470902" lon="14.83071425422">
        <ele>167.2</ele>
        <time>2020-03-23T18:30:27Z</time>
      </trkpt>
      <trkpt lat="56.889824547519" lon="14.830837384331">
        <ele>167.4</ele>
        <time>2020-03-23T18:30:36Z</time>
      </trkpt>
      <trkpt lat="56.889805520606" lon="14.8308416591">
        <ele>167.8</ele>
        <time>2020-03-23T18:30:38Z</time>
      </trkpt>
      <trkpt lat="56.889765455124" lon="14.830817016314">
        <ele>167.8</ele>
        <time>2020-03-23T18:30:41Z</time>
      </trkpt>
      <trkpt lat="56.889765622762" lon="14.830761611955">
        <ele>166.6</ele>
        <time>2020-03-23T18:30:44Z</time>
      </trkpt>
      <trkpt lat="56.889798731267" lon="14.830666142114">
        <ele>165</ele>
        <time>2020-03-23T18:30:47Z</time>
      </trkpt>
      <trkpt lat="56.889828989926" lon="14.830587771349">
        <ele>164.2</ele>
        <time>2020-03-23T18:30:50Z</time>
      </trkpt>
      <trkpt lat="56.889836114541" lon="14.830567654789">
        <ele>164</ele>
        <time>2020-03-23T18:30:51Z</time>
      </trkpt>
      <trkpt lat="56.889876682937" lon="14.830503700892">
        <ele>163.2</ele>
        <time>2020-03-23T18:30:55Z</time>
      </trkpt>
      <trkpt lat="56.889920520274" lon="14.830274036832">
        <ele>163</ele>
        <time>2020-03-23T18:31:00Z</time>
      </trkpt>
      <trkpt lat="56.889900236076" lon="14.829915040055">
        <ele>162.2</ele>
        <time>2020-03-23T18:31:06Z</time>
      </trkpt>
      <trkpt lat="56.889913563297" lon="14.829749162254">
        <ele>161.8</ele>
        <time>2020-03-23T18:31:09Z</time>
      </trkpt>
      <trkpt lat="56.889888417597" lon="14.829411036408">
        <ele>161.6</ele>
        <time>2020-03-23T18:31:14Z</time>
      </trkpt>
      <trkpt lat="56.889922280473" lon="14.829063271377">
        <ele>161.4</ele>
        <time>2020-03-23T18:31:20Z</time>
      </trkpt>
      <trkpt lat="56.890041638729" lon="14.828762444986">
        <ele>161.4</ele>
        <time>2020-03-23T18:31:27Z</time>
      </trkpt>
      <trkpt lat="56.89010441916" lon="14.828404286399">
        <ele>162</ele>
        <time>2020-03-23T18:31:34Z</time>
      </trkpt>
      <trkpt lat="56.890208103263" lon="14.828094491375">
        <ele>161.2</ele>
        <time>2020-03-23T18:31:41Z</time>
      </trkpt>
      <trkpt lat="56.890297789593" lon="14.827812608078">
        <ele>161</ele>
        <time>2020-03-23T18:31:46Z</time>
      </trkpt>
      <trkpt lat="56.890316732687" lon="14.827550170789">
        <ele>160.6</ele>
        <time>2020-03-23T18:31:50Z</time>
      </trkpt>
      <trkpt lat="56.890324108759" lon="14.827207853993">
        <ele>160.6</ele>
        <time>2020-03-23T18:31:56Z</time>
      </trkpt>
      <trkpt lat="56.890320253085" lon="14.826839218031">
        <ele>160.8</ele>
        <time>2020-03-23T18:32:02Z</time>
      </trkpt>
      <trkpt lat="56.890325449863" lon="14.826469827698">
        <ele>161.2</ele>
        <time>2020-03-23T18:32:09Z</time>
      </trkpt>
      <trkpt lat="56.890359899472" lon="14.826102365202">
        <ele>161.2</ele>
        <time>2020-03-23T18:32:15Z</time>
      </trkpt>
      <trkpt lat="56.89038940376" lon="14.825739931846">
        <ele>161.4</ele>
        <time>2020-03-23T18:32:21Z</time>
      </trkpt>
      <trkpt lat="56.8904363424" lon="14.825558296073">
        <ele>161.6</ele>
        <time>2020-03-23T18:32:25Z</time>
      </trkpt>
      <trkpt lat="56.890574057017" lon="14.825318909009">
        <ele>162.4</ele>
        <time>2020-03-23T18:32:31Z</time>
      </trkpt>
      <trkpt lat="56.890705904304" lon="14.825079773402">
        <ele>162.4</ele>
        <time>2020-03-23T18:32:37Z</time>
      </trkpt>
      <trkpt lat="56.890818137945" lon="14.824788167101">
        <ele>162.8</ele>
        <time>2020-03-23T18:32:44Z</time>
      </trkpt>
      <trkpt lat="56.890897514538" lon="14.824658834384">
        <ele>164.2</ele>
        <time>2020-03-23T18:32:49Z</time>
      </trkpt>
      <trkpt lat="56.890933724346" lon="14.824558251584">
        <ele>165.2</ele>
        <time>2020-03-23T18:32:52Z</time>
      </trkpt>
      <trkpt lat="56.890988625791" lon="14.824456579137">
        <ele>166.2</ele>
        <time>2020-03-23T18:32:55Z</time>
      </trkpt>
      <trkpt lat="56.891103625459" lon="14.824193471296">
        <ele>166.6</ele>
        <time>2020-03-23T18:33:02Z</time>
      </trkpt>
      <trkpt lat="56.891189120839" lon="14.824070927918">
        <ele>166.6</ele>
        <time>2020-03-23T18:33:08Z</time>
      </trkpt>
    </trkseg>
  </trk>
</gpx>